<?xml version="1.0" encoding="utf-8"?>
<gpx xmlns:xsi="http://www.w3.org/2001/XMLSchema-instance" xmlns:xsd="http://www.w3.org/2001/XMLSchema" version="1.1" creator="Shapelink.com" xmlns="http://www.topografix.com/GPX/1/1" xmlns:gpxtpx="http://www.garmin.com/xmlschemas/TrackPointExtension/v1">
  <metadata>
    <name>Running 16.25 km, 2012-07-07</name>
    <desc></desc>
    <author><name>Ulf Andrae</name></author> 
    <time>2012-07-07T07:10:08Z</time>
  </metadata>
  <trk>
    <name>Running 16.25 km, 2012-07-07</name>
    <trkseg>
      <trkpt lat="58.6618265044" lon="16.0060678795">
        <ele>92.42</ele>
        <time>2012-07-07T07:10:08Z</time>
      </trkpt>
      <trkpt lat="58.6618636362" lon="16.0061349347">
        <ele>92.42</ele>
        <time>2012-07-07T07:10:15Z</time>
      </trkpt>
      <trkpt lat="58.6618648935" lon="16.0061473399">
        <ele>92.42</ele>
        <time>2012-07-07T07:10:16Z</time>
      </trkpt>
      <trkpt lat="58.6618492194" lon="16.0063702147">
        <ele>91.94</ele>
        <time>2012-07-07T07:10:21Z</time>
      </trkpt>
      <trkpt lat="58.661770178" lon="16.0067618173">
        <ele>92.42</ele>
        <time>2012-07-07T07:10:30Z</time>
      </trkpt>
      <trkpt lat="58.6616873648" lon="16.0070923157">
        <ele>91.94</ele>
        <time>2012-07-07T07:10:38Z</time>
      </trkpt>
      <trkpt lat="58.6616114248" lon="16.0073762108">
        <ele>92.9</ele>
        <time>2012-07-07T07:10:45Z</time>
      </trkpt>
      <trkpt lat="58.6615602951" lon="16.0075772088">
        <ele>92.42</ele>
        <time>2012-07-07T07:10:49Z</time>
      </trkpt>
      <trkpt lat="58.6614785716" lon="16.0079710744">
        <ele>92.42</ele>
        <time>2012-07-07T07:10:58Z</time>
      </trkpt>
      <trkpt lat="58.6614325549" lon="16.0081371199">
        <ele>92.42</ele>
        <time>2012-07-07T07:11:02Z</time>
      </trkpt>
      <trkpt lat="58.6613310501" lon="16.0085148085">
        <ele>92.42</ele>
        <time>2012-07-07T07:11:11Z</time>
      </trkpt>
      <trkpt lat="58.661313029" lon="16.0085955262">
        <ele>92.9</ele>
        <time>2012-07-07T07:11:13Z</time>
      </trkpt>
      <trkpt lat="58.6611769907" lon="16.0090549383">
        <ele>92.9</ele>
        <time>2012-07-07T07:11:24Z</time>
      </trkpt>
      <trkpt lat="58.6610869691" lon="16.0093791503">
        <ele>93.39</ele>
        <time>2012-07-07T07:11:32Z</time>
      </trkpt>
      <trkpt lat="58.6611940898" lon="16.0097556654">
        <ele>92.9</ele>
        <time>2012-07-07T07:11:41Z</time>
      </trkpt>
      <trkpt lat="58.6613586266" lon="16.0101521295">
        <ele>92.9</ele>
        <time>2012-07-07T07:11:51Z</time>
      </trkpt>
      <trkpt lat="58.6615095008" lon="16.0105708055">
        <ele>92.9</ele>
        <time>2012-07-07T07:12:02Z</time>
      </trkpt>
      <trkpt lat="58.6615809146" lon="16.0107594822">
        <ele>92.9</ele>
        <time>2012-07-07T07:12:07Z</time>
      </trkpt>
      <trkpt lat="58.6616843473" lon="16.0110433772">
        <ele>93.87</ele>
        <time>2012-07-07T07:12:15Z</time>
      </trkpt>
      <trkpt lat="58.6618392449" lon="16.0114555154">
        <ele>94.83</ele>
        <time>2012-07-07T07:12:27Z</time>
      </trkpt>
      <trkpt lat="58.6620145105" lon="16.0115351435">
        <ele>94.83</ele>
        <time>2012-07-07T07:12:38Z</time>
      </trkpt>
      <trkpt lat="58.6622996628" lon="16.0115053877">
        <ele>94.35</ele>
        <time>2012-07-07T07:12:50Z</time>
      </trkpt>
      <trkpt lat="58.6626740824" lon="16.0113448743">
        <ele>94.35</ele>
        <time>2012-07-07T07:13:03Z</time>
      </trkpt>
      <trkpt lat="58.6629894096" lon="16.0110473167">
        <ele>92.42</ele>
        <time>2012-07-07T07:13:13Z</time>
      </trkpt>
      <trkpt lat="58.66324028" lon="16.0108215921">
        <ele>91.94</ele>
        <time>2012-07-07T07:13:23Z</time>
      </trkpt>
      <trkpt lat="58.6633121967" lon="16.0107697919">
        <ele>92.42</ele>
        <time>2012-07-07T07:13:26Z</time>
      </trkpt>
      <trkpt lat="58.6636783183" lon="16.01047609">
        <ele>91.94</ele>
        <time>2012-07-07T07:13:40Z</time>
      </trkpt>
      <trkpt lat="58.6640183721" lon="16.0103947856">
        <ele>91.46</ele>
        <time>2012-07-07T07:13:53Z</time>
      </trkpt>
      <trkpt lat="58.6642093956" lon="16.0103972163">
        <ele>91.94</ele>
        <time>2012-07-07T07:14:01Z</time>
      </trkpt>
      <trkpt lat="58.6645015888" lon="16.0104157403">
        <ele>92.42</ele>
        <time>2012-07-07T07:14:13Z</time>
      </trkpt>
      <trkpt lat="58.6645234656" lon="16.0104119685">
        <ele>92.42</ele>
        <time>2012-07-07T07:14:14Z</time>
      </trkpt>
      <trkpt lat="58.664710382" lon="16.0103191808">
        <ele>92.42</ele>
        <time>2012-07-07T07:14:22Z</time>
      </trkpt>
      <trkpt lat="58.6648161616" lon="16.0102039296">
        <ele>92.42</ele>
        <time>2012-07-07T07:14:27Z</time>
      </trkpt>
      <trkpt lat="58.6648894195" lon="16.0100931209">
        <ele>92.9</ele>
        <time>2012-07-07T07:14:31Z</time>
      </trkpt>
      <trkpt lat="58.664941052" lon="16.0100025963">
        <ele>92.9</ele>
        <time>2012-07-07T07:14:34Z</time>
      </trkpt>
      <trkpt lat="58.6650832929" lon="16.0096895322">
        <ele>92.42</ele>
        <time>2012-07-07T07:14:42Z</time>
      </trkpt>
      <trkpt lat="58.6651195865" lon="16.0096047074">
        <ele>92.42</ele>
        <time>2012-07-07T07:14:44Z</time>
      </trkpt>
      <trkpt lat="58.6651824508" lon="16.0094316211">
        <ele>91.94</ele>
        <time>2012-07-07T07:14:48Z</time>
      </trkpt>
      <trkpt lat="58.6652060039" lon="16.0093504004">
        <ele>91.94</ele>
        <time>2012-07-07T07:14:50Z</time>
      </trkpt>
      <trkpt lat="58.6653665174" lon="16.0088743083">
        <ele>91.94</ele>
        <time>2012-07-07T07:15:00Z</time>
      </trkpt>
      <trkpt lat="58.6654387694" lon="16.0086889844">
        <ele>91.94</ele>
        <time>2012-07-07T07:15:04Z</time>
      </trkpt>
      <trkpt lat="58.6655535176" lon="16.0083426442">
        <ele>91.46</ele>
        <time>2012-07-07T07:15:12Z</time>
      </trkpt>
      <trkpt lat="58.6656327266" lon="16.0081414785">
        <ele>91.46</ele>
        <time>2012-07-07T07:15:17Z</time>
      </trkpt>
      <trkpt lat="58.6657822598" lon="16.0076710861">
        <ele>91.46</ele>
        <time>2012-07-07T07:15:28Z</time>
      </trkpt>
      <trkpt lat="58.6659458745" lon="16.0072235763">
        <ele>90.98</ele>
        <time>2012-07-07T07:15:38Z</time>
      </trkpt>
      <trkpt lat="58.6659849342" lon="16.0071492288">
        <ele>90.5</ele>
        <time>2012-07-07T07:15:40Z</time>
      </trkpt>
      <trkpt lat="58.6660379916" lon="16.0070710257">
        <ele>90.5</ele>
        <time>2012-07-07T07:15:43Z</time>
      </trkpt>
      <trkpt lat="58.6662001815" lon="16.0069908109">
        <ele>90.98</ele>
        <time>2012-07-07T07:15:49Z</time>
      </trkpt>
      <trkpt lat="58.666389361" lon="16.0070504062">
        <ele>90.02</ele>
        <time>2012-07-07T07:15:56Z</time>
      </trkpt>
      <trkpt lat="58.666461613" lon="16.0070794914">
        <ele>89.54</ele>
        <time>2012-07-07T07:15:59Z</time>
      </trkpt>
      <trkpt lat="58.6666931212" lon="16.0072192177">
        <ele>88.1</ele>
        <time>2012-07-07T07:16:08Z</time>
      </trkpt>
      <trkpt lat="58.666855311" lon="16.0073428508">
        <ele>87.14</ele>
        <time>2012-07-07T07:16:14Z</time>
      </trkpt>
      <trkpt lat="58.6672153138" lon="16.0075249057">
        <ele>85.21</ele>
        <time>2012-07-07T07:16:26Z</time>
      </trkpt>
      <trkpt lat="58.6674850434" lon="16.007715594">
        <ele>84.73</ele>
        <time>2012-07-07T07:16:36Z</time>
      </trkpt>
      <trkpt lat="58.6675759871" lon="16.00778047">
        <ele>85.21</ele>
        <time>2012-07-07T07:16:40Z</time>
      </trkpt>
      <trkpt lat="58.6677712854" lon="16.0082364455">
        <ele>87.14</ele>
        <time>2012-07-07T07:16:52Z</time>
      </trkpt>
      <trkpt lat="58.6678002868" lon="16.0084913392">
        <ele>88.58</ele>
        <time>2012-07-07T07:16:57Z</time>
      </trkpt>
      <trkpt lat="58.6677991971" lon="16.0088058282">
        <ele>89.06</ele>
        <time>2012-07-07T07:17:03Z</time>
      </trkpt>
      <trkpt lat="58.6678069085" lon="16.0091934074">
        <ele>90.02</ele>
        <time>2012-07-07T07:17:11Z</time>
      </trkpt>
      <trkpt lat="58.6678305455" lon="16.0096556693">
        <ele>91.46</ele>
        <time>2012-07-07T07:17:21Z</time>
      </trkpt>
      <trkpt lat="58.667862732" lon="16.0101542249">
        <ele>92.42</ele>
        <time>2012-07-07T07:17:31Z</time>
      </trkpt>
      <trkpt lat="58.6679412704" lon="16.0106139723">
        <ele>92.42</ele>
        <time>2012-07-07T07:17:40Z</time>
      </trkpt>
      <trkpt lat="58.6679614708" lon="16.0107042454">
        <ele>92.9</ele>
        <time>2012-07-07T07:17:42Z</time>
      </trkpt>
      <trkpt lat="58.668047972" lon="16.0111383442">
        <ele>92.42</ele>
        <time>2012-07-07T07:17:51Z</time>
      </trkpt>
      <trkpt lat="58.6681389157" lon="16.0114374943">
        <ele>92.42</ele>
        <time>2012-07-07T07:17:58Z</time>
      </trkpt>
      <trkpt lat="58.6682617944" lon="16.0118409991">
        <ele>93.39</ele>
        <time>2012-07-07T07:18:08Z</time>
      </trkpt>
      <trkpt lat="58.6683130078" lon="16.012012409">
        <ele>93.39</ele>
        <time>2012-07-07T07:18:12Z</time>
      </trkpt>
      <trkpt lat="58.6683529057" lon="16.0121581703">
        <ele>93.87</ele>
        <time>2012-07-07T07:18:15Z</time>
      </trkpt>
      <trkpt lat="58.6686060391" lon="16.0125419777">
        <ele>94.35</ele>
        <time>2012-07-07T07:18:27Z</time>
      </trkpt>
      <trkpt lat="58.6687966436" lon="16.0127397068">
        <ele>95.31</ele>
        <time>2012-07-07T07:18:35Z</time>
      </trkpt>
      <trkpt lat="58.6690797843" lon="16.0131599754">
        <ele>94.83</ele>
        <time>2012-07-07T07:18:48Z</time>
      </trkpt>
      <trkpt lat="58.6692169961" lon="16.0135737062">
        <ele>94.83</ele>
        <time>2012-07-07T07:18:59Z</time>
      </trkpt>
      <trkpt lat="58.6692478415" lon="16.0136993509">
        <ele>94.83</ele>
        <time>2012-07-07T07:19:02Z</time>
      </trkpt>
      <trkpt lat="58.669378683" lon="16.0138731077">
        <ele>95.31</ele>
        <time>2012-07-07T07:19:10Z</time>
      </trkpt>
      <trkpt lat="58.6696222611" lon="16.0136141069">
        <ele>95.79</ele>
        <time>2012-07-07T07:19:22Z</time>
      </trkpt>
      <trkpt lat="58.6697391886" lon="16.0135461297">
        <ele>96.75</ele>
        <time>2012-07-07T07:19:27Z</time>
      </trkpt>
      <trkpt lat="58.6698997021" lon="16.0136210639">
        <ele>99.63</ele>
        <time>2012-07-07T07:19:35Z</time>
      </trkpt>
      <trkpt lat="58.6702338886" lon="16.0134855285">
        <ele>97.23</ele>
        <time>2012-07-07T07:19:48Z</time>
      </trkpt>
      <trkpt lat="58.6703970004" lon="16.0136093292">
        <ele>96.75</ele>
        <time>2012-07-07T07:19:57Z</time>
      </trkpt>
      <trkpt lat="58.6703982577" lon="16.0137768835">
        <ele>98.19</ele>
        <time>2012-07-07T07:20:01Z</time>
      </trkpt>
      <trkpt lat="58.6703835893" lon="16.0138570983">
        <ele>99.15</ele>
        <time>2012-07-07T07:20:03Z</time>
      </trkpt>
      <trkpt lat="58.6703807395" lon="16.0139510594">
        <ele>100.11</ele>
        <time>2012-07-07T07:20:05Z</time>
      </trkpt>
      <trkpt lat="58.6704026163" lon="16.014441736">
        <ele>101.08</ele>
        <time>2012-07-07T07:20:15Z</time>
      </trkpt>
      <trkpt lat="58.6704158597" lon="16.0145947058">
        <ele>101.08</ele>
        <time>2012-07-07T07:20:18Z</time>
      </trkpt>
      <trkpt lat="58.6706165224" lon="16.014954038">
        <ele>102.04</ele>
        <time>2012-07-07T07:20:29Z</time>
      </trkpt>
      <trkpt lat="58.6708567478" lon="16.0151320696">
        <ele>104.44</ele>
        <time>2012-07-07T07:20:40Z</time>
      </trkpt>
      <trkpt lat="58.6711112224" lon="16.0153561179">
        <ele>101.56</ele>
        <time>2012-07-07T07:20:52Z</time>
      </trkpt>
      <trkpt lat="58.6711781099" lon="16.0154762305">
        <ele>101.56</ele>
        <time>2012-07-07T07:20:56Z</time>
      </trkpt>
      <trkpt lat="58.6711425707" lon="16.0157980118">
        <ele>101.56</ele>
        <time>2012-07-07T07:21:04Z</time>
      </trkpt>
      <trkpt lat="58.6710828915" lon="16.0161871836">
        <ele>102.52</ele>
        <time>2012-07-07T07:21:12Z</time>
      </trkpt>
      <trkpt lat="58.6710640322" lon="16.0162943043">
        <ele>102.52</ele>
        <time>2012-07-07T07:21:14Z</time>
      </trkpt>
      <trkpt lat="58.6709688976" lon="16.0167486034">
        <ele>102.04</ele>
        <time>2012-07-07T07:21:24Z</time>
      </trkpt>
      <trkpt lat="58.6709598452" lon="16.016786322">
        <ele>102.04</ele>
        <time>2012-07-07T07:21:25Z</time>
      </trkpt>
      <trkpt lat="58.6708701588" lon="16.016967874">
        <ele>103.48</ele>
        <time>2012-07-07T07:21:30Z</time>
      </trkpt>
      <trkpt lat="58.6707515549" lon="16.0174593888">
        <ele>103</ele>
        <time>2012-07-07T07:21:41Z</time>
      </trkpt>
      <trkpt lat="58.6707179435" lon="16.0176582076">
        <ele>103.96</ele>
        <time>2012-07-07T07:21:45Z</time>
      </trkpt>
      <trkpt lat="58.6706595216" lon="16.0179226566">
        <ele>104.92</ele>
        <time>2012-07-07T07:21:51Z</time>
      </trkpt>
      <trkpt lat="58.6705799773" lon="16.0183389019">
        <ele>105.88</ele>
        <time>2012-07-07T07:22:00Z</time>
      </trkpt>
      <trkpt lat="58.6705920473" lon="16.0184586793">
        <ele>106.36</ele>
        <time>2012-07-07T07:22:03Z</time>
      </trkpt>
      <trkpt lat="58.6706436798" lon="16.018613996">
        <ele>106.84</ele>
        <time>2012-07-07T07:22:08Z</time>
      </trkpt>
      <trkpt lat="58.6706487089" lon="16.0187483579">
        <ele>106.84</ele>
        <time>2012-07-07T07:22:11Z</time>
      </trkpt>
      <trkpt lat="58.6706979945" lon="16.0189677961">
        <ele>107.81</ele>
        <time>2012-07-07T07:22:16Z</time>
      </trkpt>
      <trkpt lat="58.67082607" lon="16.0194045771">
        <ele>110.69</ele>
        <time>2012-07-07T07:22:27Z</time>
      </trkpt>
      <trkpt lat="58.6709496193" lon="16.0195025615">
        <ele>112.13</ele>
        <time>2012-07-07T07:22:34Z</time>
      </trkpt>
      <trkpt lat="58.6711090431" lon="16.0193963628">
        <ele>114.53</ele>
        <time>2012-07-07T07:22:42Z</time>
      </trkpt>
      <trkpt lat="58.6712094583" lon="16.0192480031">
        <ele>115.98</ele>
        <time>2012-07-07T07:22:48Z</time>
      </trkpt>
      <trkpt lat="58.6713166628" lon="16.0189750884">
        <ele>117.42</ele>
        <time>2012-07-07T07:22:57Z</time>
      </trkpt>
      <trkpt lat="58.6713755876" lon="16.0187888425">
        <ele>118.38</ele>
        <time>2012-07-07T07:23:02Z</time>
      </trkpt>
      <trkpt lat="58.671424957" lon="16.0186605155">
        <ele>118.38</ele>
        <time>2012-07-07T07:23:05Z</time>
      </trkpt>
      <trkpt lat="58.6715184152" lon="16.018510228">
        <ele>118.38</ele>
        <time>2012-07-07T07:23:10Z</time>
      </trkpt>
      <trkpt lat="58.6716661882" lon="16.0181156918">
        <ele>117.9</ele>
        <time>2012-07-07T07:23:19Z</time>
      </trkpt>
      <trkpt lat="58.6716955248" lon="16.0179284401">
        <ele>118.38</ele>
        <time>2012-07-07T07:23:23Z</time>
      </trkpt>
      <trkpt lat="58.6717225146" lon="16.0178600438">
        <ele>117.9</ele>
        <time>2012-07-07T07:23:25Z</time>
      </trkpt>
      <trkpt lat="58.6718855426" lon="16.0178045556">
        <ele>116.46</ele>
        <time>2012-07-07T07:23:31Z</time>
      </trkpt>
      <trkpt lat="58.6719484907" lon="16.017725179">
        <ele>115.5</ele>
        <time>2012-07-07T07:23:34Z</time>
      </trkpt>
      <trkpt lat="58.6720458884" lon="16.0175290424">
        <ele>115.5</ele>
        <time>2012-07-07T07:23:39Z</time>
      </trkpt>
      <trkpt lat="58.6720628198" lon="16.0170430597">
        <ele>114.53</ele>
        <time>2012-07-07T07:23:49Z</time>
      </trkpt>
      <trkpt lat="58.6722209025" lon="16.0165004153">
        <ele>114.05</ele>
        <time>2012-07-07T07:24:00Z</time>
      </trkpt>
      <trkpt lat="58.672303129" lon="16.0163052008">
        <ele>113.09</ele>
        <time>2012-07-07T07:24:05Z</time>
      </trkpt>
      <trkpt lat="58.6723464634" lon="16.0161532369">
        <ele>112.61</ele>
        <time>2012-07-07T07:24:09Z</time>
      </trkpt>
      <trkpt lat="58.6724459566" lon="16.0159916338">
        <ele>111.65</ele>
        <time>2012-07-07T07:24:16Z</time>
      </trkpt>
      <trkpt lat="58.6726391595" lon="16.0156025458">
        <ele>112.61</ele>
        <time>2012-07-07T07:24:26Z</time>
      </trkpt>
      <trkpt lat="58.672710238" lon="16.0152893979">
        <ele>112.13</ele>
        <time>2012-07-07T07:24:33Z</time>
      </trkpt>
      <trkpt lat="58.6727571767" lon="16.0149287246">
        <ele>111.17</ele>
        <time>2012-07-07T07:24:40Z</time>
      </trkpt>
      <trkpt lat="58.6727725156" lon="16.014880361">
        <ele>110.69</ele>
        <time>2012-07-07T07:24:41Z</time>
      </trkpt>
      <trkpt lat="58.6728469469" lon="16.0145444144">
        <ele>110.69</ele>
        <time>2012-07-07T07:24:48Z</time>
      </trkpt>
      <trkpt lat="58.6728652194" lon="16.0144522134">
        <ele>110.69</ele>
        <time>2012-07-07T07:24:50Z</time>
      </trkpt>
      <trkpt lat="58.6729200371" lon="16.0141698271">
        <ele>110.69</ele>
        <time>2012-07-07T07:24:56Z</time>
      </trkpt>
      <trkpt lat="58.6729825661" lon="16.0137998499">
        <ele>111.17</ele>
        <time>2012-07-07T07:25:04Z</time>
      </trkpt>
      <trkpt lat="58.6728973221" lon="16.0133743007">
        <ele>111.65</ele>
        <time>2012-07-07T07:25:13Z</time>
      </trkpt>
      <trkpt lat="58.6728887726" lon="16.0133242607">
        <ele>111.65</ele>
        <time>2012-07-07T07:25:14Z</time>
      </trkpt>
      <trkpt lat="58.6729191989" lon="16.0129112005">
        <ele>111.65</ele>
        <time>2012-07-07T07:25:22Z</time>
      </trkpt>
      <trkpt lat="58.6729207076" lon="16.0126994736">
        <ele>110.21</ele>
        <time>2012-07-07T07:25:26Z</time>
      </trkpt>
      <trkpt lat="58.6729693227" lon="16.0124993138">
        <ele>109.73</ele>
        <time>2012-07-07T07:25:30Z</time>
      </trkpt>
      <trkpt lat="58.6730082147" lon="16.0123093799">
        <ele>109.25</ele>
        <time>2012-07-07T07:25:34Z</time>
      </trkpt>
      <trkpt lat="58.6730379704" lon="16.012135623">
        <ele>108.29</ele>
        <time>2012-07-07T07:25:38Z</time>
      </trkpt>
      <trkpt lat="58.6731339432" lon="16.0117214732">
        <ele>107.81</ele>
        <time>2012-07-07T07:25:47Z</time>
      </trkpt>
      <trkpt lat="58.6732082069" lon="16.0112769809">
        <ele>106.84</ele>
        <time>2012-07-07T07:25:56Z</time>
      </trkpt>
      <trkpt lat="58.6732525472" lon="16.0111890547">
        <ele>106.84</ele>
        <time>2012-07-07T07:25:58Z</time>
      </trkpt>
      <trkpt lat="58.6734133959" lon="16.0110198241">
        <ele>105.4</ele>
        <time>2012-07-07T07:26:05Z</time>
      </trkpt>
      <trkpt lat="58.6737211794" lon="16.0108288005">
        <ele>102.52</ele>
        <time>2012-07-07T07:26:17Z</time>
      </trkpt>
      <trkpt lat="58.6737520248" lon="16.0108661">
        <ele>103</ele>
        <time>2012-07-07T07:26:19Z</time>
      </trkpt>
      <trkpt lat="58.6738587264" lon="16.0111544374">
        <ele>103.48</ele>
        <time>2012-07-07T07:26:28Z</time>
      </trkpt>
      <trkpt lat="58.6739199143" lon="16.0112516675">
        <ele>103.48</ele>
        <time>2012-07-07T07:26:32Z</time>
      </trkpt>
      <trkpt lat="58.6739448924" lon="16.0113742948">
        <ele>103.48</ele>
        <time>2012-07-07T07:26:35Z</time>
      </trkpt>
      <trkpt lat="58.6739448085" lon="16.0116385762">
        <ele>103</ele>
        <time>2012-07-07T07:26:41Z</time>
      </trkpt>
      <trkpt lat="58.6739925016" lon="16.0119791329">
        <ele>101.08</ele>
        <time>2012-07-07T07:26:48Z</time>
      </trkpt>
      <trkpt lat="58.6740189046" lon="16.0123064462">
        <ele>100.6</ele>
        <time>2012-07-07T07:26:54Z</time>
      </trkpt>
      <trkpt lat="58.6740764044" lon="16.0124397185">
        <ele>101.56</ele>
        <time>2012-07-07T07:26:58Z</time>
      </trkpt>
      <trkpt lat="58.67423038" lon="16.0127866454">
        <ele>104.44</ele>
        <time>2012-07-07T07:27:09Z</time>
      </trkpt>
      <trkpt lat="58.6743619759" lon="16.0130283795">
        <ele>103.96</ele>
        <time>2012-07-07T07:27:16Z</time>
      </trkpt>
      <trkpt lat="58.6744013708" lon="16.0131021403">
        <ele>103.96</ele>
        <time>2012-07-07T07:27:18Z</time>
      </trkpt>
      <trkpt lat="58.6744488962" lon="16.0133083351">
        <ele>104.44</ele>
        <time>2012-07-07T07:27:23Z</time>
      </trkpt>
      <trkpt lat="58.674469348" lon="16.0136467125">
        <ele>103.48</ele>
        <time>2012-07-07T07:27:30Z</time>
      </trkpt>
      <trkpt lat="58.6744064838" lon="16.0142109822">
        <ele>104.44</ele>
        <time>2012-07-07T07:27:41Z</time>
      </trkpt>
      <trkpt lat="58.6744047236" lon="16.0145253036">
        <ele>104.44</ele>
        <time>2012-07-07T07:27:48Z</time>
      </trkpt>
      <trkpt lat="58.6743837688" lon="16.0149326641">
        <ele>104.44</ele>
        <time>2012-07-07T07:27:57Z</time>
      </trkpt>
      <trkpt lat="58.6744146142" lon="16.0152100213">
        <ele>103.48</ele>
        <time>2012-07-07T07:28:03Z</time>
      </trkpt>
      <trkpt lat="58.6745416839" lon="16.0157797392">
        <ele>103</ele>
        <time>2012-07-07T07:28:13Z</time>
      </trkpt>
      <trkpt lat="58.6746313702" lon="16.0160643049">
        <ele>102.52</ele>
        <time>2012-07-07T07:28:19Z</time>
      </trkpt>
      <trkpt lat="58.6747844238" lon="16.0164896864">
        <ele>102.52</ele>
        <time>2012-07-07T07:28:30Z</time>
      </trkpt>
      <trkpt lat="58.6749706697" lon="16.0169927683">
        <ele>100.11</ele>
        <time>2012-07-07T07:28:42Z</time>
      </trkpt>
      <trkpt lat="58.674997827" lon="16.0170794372">
        <ele>99.63</ele>
        <time>2012-07-07T07:28:44Z</time>
      </trkpt>
      <trkpt lat="58.6750811432" lon="16.0174033977">
        <ele>98.19</ele>
        <time>2012-07-07T07:28:51Z</time>
      </trkpt>
      <trkpt lat="58.6750306841" lon="16.0176963452">
        <ele>100.11</ele>
        <time>2012-07-07T07:28:58Z</time>
      </trkpt>
      <trkpt lat="58.6748755351" lon="16.017944701">
        <ele>101.56</ele>
        <time>2012-07-07T07:29:07Z</time>
      </trkpt>
      <trkpt lat="58.6748598609" lon="16.0180875286">
        <ele>101.08</ele>
        <time>2012-07-07T07:29:10Z</time>
      </trkpt>
      <trkpt lat="58.6748611182" lon="16.0182418395">
        <ele>101.08</ele>
        <time>2012-07-07T07:29:13Z</time>
      </trkpt>
      <trkpt lat="58.6747622956" lon="16.018624641">
        <ele>102.04</ele>
        <time>2012-07-07T07:29:21Z</time>
      </trkpt>
      <trkpt lat="58.6746985931" lon="16.0189348552">
        <ele>102.52</ele>
        <time>2012-07-07T07:29:28Z</time>
      </trkpt>
      <trkpt lat="58.674670849" lon="16.019006772">
        <ele>103</ele>
        <time>2012-07-07T07:29:30Z</time>
      </trkpt>
      <trkpt lat="58.6745481379" lon="16.0192797706">
        <ele>103.48</ele>
        <time>2012-07-07T07:29:38Z</time>
      </trkpt>
      <trkpt lat="58.6745289434" lon="16.0193042457">
        <ele>103.96</ele>
        <time>2012-07-07T07:29:39Z</time>
      </trkpt>
      <trkpt lat="58.6744092498" lon="16.0196204949">
        <ele>103.96</ele>
        <time>2012-07-07T07:29:48Z</time>
      </trkpt>
      <trkpt lat="58.6742659193" lon="16.0199037194">
        <ele>103.48</ele>
        <time>2012-07-07T07:29:56Z</time>
      </trkpt>
      <trkpt lat="58.6741219182" lon="16.0202866048">
        <ele>103.96</ele>
        <time>2012-07-07T07:30:06Z</time>
      </trkpt>
      <trkpt lat="58.6739904061" lon="16.0208383854">
        <ele>104.44</ele>
        <time>2012-07-07T07:30:17Z</time>
      </trkpt>
      <trkpt lat="58.6738981213" lon="16.0210626014">
        <ele>103</ele>
        <time>2012-07-07T07:30:22Z</time>
      </trkpt>
      <trkpt lat="58.6736945249" lon="16.0212455783">
        <ele>103.48</ele>
        <time>2012-07-07T07:30:31Z</time>
      </trkpt>
      <trkpt lat="58.6735280603" lon="16.0214733984">
        <ele>103.96</ele>
        <time>2012-07-07T07:30:40Z</time>
      </trkpt>
      <trkpt lat="58.6734288186" lon="16.0216137115">
        <ele>104.44</ele>
        <time>2012-07-07T07:30:45Z</time>
      </trkpt>
      <trkpt lat="58.673165543" lon="16.0218726285">
        <ele>103.96</ele>
        <time>2012-07-07T07:30:57Z</time>
      </trkpt>
      <trkpt lat="58.6731150001" lon="16.0218948405">
        <ele>104.44</ele>
        <time>2012-07-07T07:30:59Z</time>
      </trkpt>
      <trkpt lat="58.6730489507" lon="16.0219541006">
        <ele>104.44</ele>
        <time>2012-07-07T07:31:02Z</time>
      </trkpt>
      <trkpt lat="58.6730169319" lon="16.0220266879">
        <ele>105.4</ele>
        <time>2012-07-07T07:31:05Z</time>
      </trkpt>
      <trkpt lat="58.672990948" lon="16.0221790709">
        <ele>105.4</ele>
        <time>2012-07-07T07:31:09Z</time>
      </trkpt>
      <trkpt lat="58.6728477851" lon="16.0225322843">
        <ele>106.84</ele>
        <time>2012-07-07T07:31:18Z</time>
      </trkpt>
      <trkpt lat="58.6727207992" lon="16.0226478707">
        <ele>107.32</ele>
        <time>2012-07-07T07:31:25Z</time>
      </trkpt>
      <trkpt lat="58.6726443563" lon="16.0227295104">
        <ele>108.29</ele>
        <time>2012-07-07T07:31:29Z</time>
      </trkpt>
      <trkpt lat="58.6725202203" lon="16.0229127388">
        <ele>109.73</ele>
        <time>2012-07-07T07:31:36Z</time>
      </trkpt>
      <trkpt lat="58.6724037118" lon="16.0230442509">
        <ele>110.21</ele>
        <time>2012-07-07T07:31:43Z</time>
      </trkpt>
      <trkpt lat="58.6723491456" lon="16.0230986495">
        <ele>111.65</ele>
        <time>2012-07-07T07:31:46Z</time>
      </trkpt>
      <trkpt lat="58.6723063979" lon="16.0231858213">
        <ele>112.61</ele>
        <time>2012-07-07T07:31:49Z</time>
      </trkpt>
      <trkpt lat="58.6722352356" lon="16.023288751">
        <ele>114.05</ele>
        <time>2012-07-07T07:31:53Z</time>
      </trkpt>
      <trkpt lat="58.6721906438" lon="16.023361925">
        <ele>114.05</ele>
        <time>2012-07-07T07:31:56Z</time>
      </trkpt>
      <trkpt lat="58.6721515004" lon="16.0234169941">
        <ele>115.01</ele>
        <time>2012-07-07T07:31:59Z</time>
      </trkpt>
      <trkpt lat="58.6720616464" lon="16.0235505179">
        <ele>115.5</ele>
        <time>2012-07-07T07:32:05Z</time>
      </trkpt>
      <trkpt lat="58.6719051562" lon="16.0239673499">
        <ele>115.98</ele>
        <time>2012-07-07T07:32:17Z</time>
      </trkpt>
      <trkpt lat="58.6719023902" lon="16.0240667593">
        <ele>115.98</ele>
        <time>2012-07-07T07:32:19Z</time>
      </trkpt>
      <trkpt lat="58.6717659328" lon="16.024491135">
        <ele>114.05</ele>
        <time>2012-07-07T07:32:29Z</time>
      </trkpt>
      <trkpt lat="58.671551859" lon="16.0247282591">
        <ele>113.57</ele>
        <time>2012-07-07T07:32:39Z</time>
      </trkpt>
      <trkpt lat="58.6714884918" lon="16.0248336196">
        <ele>113.09</ele>
        <time>2012-07-07T07:32:43Z</time>
      </trkpt>
      <trkpt lat="58.6712025013" lon="16.0247920454">
        <ele>113.09</ele>
        <time>2012-07-07T07:32:53Z</time>
      </trkpt>
      <trkpt lat="58.671131758" lon="16.0247878544">
        <ele>112.61</ele>
        <time>2012-07-07T07:32:56Z</time>
      </trkpt>
      <trkpt lat="58.6710197758" lon="16.0247643013">
        <ele>112.61</ele>
        <time>2012-07-07T07:33:01Z</time>
      </trkpt>
      <trkpt lat="58.6709293351" lon="16.0247751977">
        <ele>113.09</ele>
        <time>2012-07-07T07:33:06Z</time>
      </trkpt>
      <trkpt lat="58.6708255671" lon="16.0248544067">
        <ele>113.09</ele>
        <time>2012-07-07T07:33:10Z</time>
      </trkpt>
      <trkpt lat="58.6706812307" lon="16.025214158">
        <ele>111.65</ele>
        <time>2012-07-07T07:33:19Z</time>
      </trkpt>
      <trkpt lat="58.6705489643" lon="16.0254549701">
        <ele>111.17</ele>
        <time>2012-07-07T07:33:25Z</time>
      </trkpt>
      <trkpt lat="58.6703340523" lon="16.0257078521">
        <ele>111.17</ele>
        <time>2012-07-07T07:33:34Z</time>
      </trkpt>
      <trkpt lat="58.6702424381" lon="16.0258357599">
        <ele>110.69</ele>
        <time>2012-07-07T07:33:38Z</time>
      </trkpt>
      <trkpt lat="58.6701287795" lon="16.0262421146">
        <ele>110.21</ele>
        <time>2012-07-07T07:33:48Z</time>
      </trkpt>
      <trkpt lat="58.6701084953" lon="16.0262862034">
        <ele>110.21</ele>
        <time>2012-07-07T07:33:49Z</time>
      </trkpt>
      <trkpt lat="58.6698937509" lon="16.0268550832">
        <ele>107.81</ele>
        <time>2012-07-07T07:34:02Z</time>
      </trkpt>
      <trkpt lat="58.6698235944" lon="16.0269968212">
        <ele>107.32</ele>
        <time>2012-07-07T07:34:06Z</time>
      </trkpt>
      <trkpt lat="58.6698002927" lon="16.0270678997">
        <ele>107.32</ele>
        <time>2012-07-07T07:34:08Z</time>
      </trkpt>
      <trkpt lat="58.6697396915" lon="16.0271831509">
        <ele>106.84</ele>
        <time>2012-07-07T07:34:12Z</time>
      </trkpt>
      <trkpt lat="58.669651011" lon="16.0273549799">
        <ele>105.88</ele>
        <time>2012-07-07T07:34:17Z</time>
      </trkpt>
      <trkpt lat="58.669607928" lon="16.0274369549">
        <ele>104.44</ele>
        <time>2012-07-07T07:34:20Z</time>
      </trkpt>
      <trkpt lat="58.6695749871" lon="16.0275250487">
        <ele>104.92</ele>
        <time>2012-07-07T07:34:22Z</time>
      </trkpt>
      <trkpt lat="58.669547746" lon="16.0276026651">
        <ele>104.92</ele>
        <time>2012-07-07T07:34:24Z</time>
      </trkpt>
      <trkpt lat="58.6694797687" lon="16.0278471652">
        <ele>103.96</ele>
        <time>2012-07-07T07:34:29Z</time>
      </trkpt>
      <trkpt lat="58.66931431" lon="16.0282615665">
        <ele>103.96</ele>
        <time>2012-07-07T07:34:40Z</time>
      </trkpt>
      <trkpt lat="58.6692116316" lon="16.0288026184">
        <ele>100.6</ele>
        <time>2012-07-07T07:34:50Z</time>
      </trkpt>
      <trkpt lat="58.6691170838" lon="16.0293617751">
        <ele>99.15</ele>
        <time>2012-07-07T07:35:01Z</time>
      </trkpt>
      <trkpt lat="58.6690728273" lon="16.0298423935">
        <ele>98.19</ele>
        <time>2012-07-07T07:35:10Z</time>
      </trkpt>
      <trkpt lat="58.6691026669" lon="16.0303075053">
        <ele>97.71</ele>
        <time>2012-07-07T07:35:20Z</time>
      </trkpt>
      <trkpt lat="58.6692236178" lon="16.030669855">
        <ele>97.23</ele>
        <time>2012-07-07T07:35:28Z</time>
      </trkpt>
      <trkpt lat="58.6692884099" lon="16.0307845194">
        <ele>97.71</ele>
        <time>2012-07-07T07:35:32Z</time>
      </trkpt>
      <trkpt lat="58.6694452353" lon="16.0312105715">
        <ele>99.15</ele>
        <time>2012-07-07T07:35:43Z</time>
      </trkpt>
      <trkpt lat="58.6695825309" lon="16.0313904472">
        <ele>100.11</ele>
        <time>2012-07-07T07:35:49Z</time>
      </trkpt>
      <trkpt lat="58.6698233429" lon="16.0311838333">
        <ele>102.52</ele>
        <time>2012-07-07T07:36:00Z</time>
      </trkpt>
      <trkpt lat="58.6700880434" lon="16.0308369063">
        <ele>103</ele>
        <time>2012-07-07T07:36:12Z</time>
      </trkpt>
      <trkpt lat="58.6702954117" lon="16.0306167975">
        <ele>102.04</ele>
        <time>2012-07-07T07:36:21Z</time>
      </trkpt>
      <trkpt lat="58.6705872696" lon="16.0304044001">
        <ele>101.56</ele>
        <time>2012-07-07T07:36:33Z</time>
      </trkpt>
      <trkpt lat="58.6707879324" lon="16.0302781686">
        <ele>100.6</ele>
        <time>2012-07-07T07:36:40Z</time>
      </trkpt>
      <trkpt lat="58.6710708216" lon="16.0299720615">
        <ele>100.11</ele>
        <time>2012-07-07T07:36:53Z</time>
      </trkpt>
      <trkpt lat="58.6712939478" lon="16.0294932034">
        <ele>98.67</ele>
        <time>2012-07-07T07:37:05Z</time>
      </trkpt>
      <trkpt lat="58.6715182476" lon="16.0290980805">
        <ele>97.71</ele>
        <time>2012-07-07T07:37:16Z</time>
      </trkpt>
      <trkpt lat="58.6716892384" lon="16.0288239084">
        <ele>96.75</ele>
        <time>2012-07-07T07:37:25Z</time>
      </trkpt>
      <trkpt lat="58.6719258595" lon="16.0284142848">
        <ele>96.27</ele>
        <time>2012-07-07T07:37:36Z</time>
      </trkpt>
      <trkpt lat="58.6721647438" lon="16.0281122848">
        <ele>95.31</ele>
        <time>2012-07-07T07:37:45Z</time>
      </trkpt>
      <trkpt lat="58.6724402569" lon="16.0280267056">
        <ele>93.39</ele>
        <time>2012-07-07T07:37:55Z</time>
      </trkpt>
      <trkpt lat="58.6725641415" lon="16.0280016437">
        <ele>93.39</ele>
        <time>2012-07-07T07:38:00Z</time>
      </trkpt>
      <trkpt lat="58.6727538239" lon="16.0281378496">
        <ele>93.39</ele>
        <time>2012-07-07T07:38:07Z</time>
      </trkpt>
      <trkpt lat="58.6729267426" lon="16.0285457131">
        <ele>93.87</ele>
        <time>2012-07-07T07:38:18Z</time>
      </trkpt>
      <trkpt lat="58.6729419976" lon="16.028643949">
        <ele>93.87</ele>
        <time>2012-07-07T07:38:20Z</time>
      </trkpt>
      <trkpt lat="58.6729998328" lon="16.0288612917">
        <ele>94.35</ele>
        <time>2012-07-07T07:38:25Z</time>
      </trkpt>
      <trkpt lat="58.6730271578" lon="16.0289787222">
        <ele>93.87</ele>
        <time>2012-07-07T07:38:28Z</time>
      </trkpt>
      <trkpt lat="58.6730848253" lon="16.0292842425">
        <ele>94.35</ele>
        <time>2012-07-07T07:38:35Z</time>
      </trkpt>
      <trkpt lat="58.673059931" lon="16.0297617596">
        <ele>93.87</ele>
        <time>2012-07-07T07:38:45Z</time>
      </trkpt>
      <trkpt lat="58.6730584223" lon="16.0299127176">
        <ele>93.87</ele>
        <time>2012-07-07T07:38:48Z</time>
      </trkpt>
      <trkpt lat="58.6730145011" lon="16.0301713832">
        <ele>92.9</ele>
        <time>2012-07-07T07:38:53Z</time>
      </trkpt>
      <trkpt lat="58.6729647964" lon="16.03043315">
        <ele>92.42</ele>
        <time>2012-07-07T07:38:58Z</time>
      </trkpt>
      <trkpt lat="58.6729134992" lon="16.0308536701">
        <ele>91.46</ele>
        <time>2012-07-07T07:39:06Z</time>
      </trkpt>
      <trkpt lat="58.6729735974" lon="16.031306209">
        <ele>90.5</ele>
        <time>2012-07-07T07:39:16Z</time>
      </trkpt>
      <trkpt lat="58.6731309257" lon="16.031843992">
        <ele>90.5</ele>
        <time>2012-07-07T07:39:27Z</time>
      </trkpt>
      <trkpt lat="58.6732750107" lon="16.0323744826">
        <ele>91.46</ele>
        <time>2012-07-07T07:39:38Z</time>
      </trkpt>
      <trkpt lat="58.6732860748" lon="16.0324233491">
        <ele>91.46</ele>
        <time>2012-07-07T07:39:39Z</time>
      </trkpt>
      <trkpt lat="58.6733246315" lon="16.0328747984">
        <ele>90.02</ele>
        <time>2012-07-07T07:39:48Z</time>
      </trkpt>
      <trkpt lat="58.6732895952" lon="16.0333947279">
        <ele>89.54</ele>
        <time>2012-07-07T07:39:58Z</time>
      </trkpt>
      <trkpt lat="58.673266964" lon="16.033559097">
        <ele>89.54</ele>
        <time>2012-07-07T07:40:01Z</time>
      </trkpt>
      <trkpt lat="58.6731951311" lon="16.0340293217">
        <ele>89.54</ele>
        <time>2012-07-07T07:40:10Z</time>
      </trkpt>
      <trkpt lat="58.6731383018" lon="16.0344070103">
        <ele>90.02</ele>
        <time>2012-07-07T07:40:18Z</time>
      </trkpt>
      <trkpt lat="58.6731041875" lon="16.0345361754">
        <ele>90.5</ele>
        <time>2012-07-07T07:40:21Z</time>
      </trkpt>
      <trkpt lat="58.6730515491" lon="16.0348759778">
        <ele>90.98</ele>
        <time>2012-07-07T07:40:28Z</time>
      </trkpt>
      <trkpt lat="58.6730396468" lon="16.0349796619">
        <ele>90.98</ele>
        <time>2012-07-07T07:40:30Z</time>
      </trkpt>
      <trkpt lat="58.6729801353" lon="16.0354462825">
        <ele>91.94</ele>
        <time>2012-07-07T07:40:40Z</time>
      </trkpt>
      <trkpt lat="58.6729551572" lon="16.0357140005">
        <ele>91.94</ele>
        <time>2012-07-07T07:40:46Z</time>
      </trkpt>
      <trkpt lat="58.6729704123" lon="16.0358537268">
        <ele>91.94</ele>
        <time>2012-07-07T07:40:49Z</time>
      </trkpt>
      <trkpt lat="58.6731100548" lon="16.0362847243">
        <ele>93.39</ele>
        <time>2012-07-07T07:40:59Z</time>
      </trkpt>
      <trkpt lat="58.6732633598" lon="16.0365417134">
        <ele>92.9</ele>
        <time>2012-07-07T07:41:06Z</time>
      </trkpt>
      <trkpt lat="58.6734079476" lon="16.0366719682">
        <ele>91.94</ele>
        <time>2012-07-07T07:41:12Z</time>
      </trkpt>
      <trkpt lat="58.6734988913" lon="16.0371203162">
        <ele>92.42</ele>
        <time>2012-07-07T07:41:22Z</time>
      </trkpt>
      <trkpt lat="58.6734687164" lon="16.0375918821">
        <ele>92.42</ele>
        <time>2012-07-07T07:41:32Z</time>
      </trkpt>
      <trkpt lat="58.6734556407" lon="16.0376876034">
        <ele>92.42</ele>
        <time>2012-07-07T07:41:34Z</time>
      </trkpt>
      <trkpt lat="58.6734656151" lon="16.0381239653">
        <ele>92.9</ele>
        <time>2012-07-07T07:41:42Z</time>
      </trkpt>
      <trkpt lat="58.673574077" lon="16.0385829583">
        <ele>92.42</ele>
        <time>2012-07-07T07:41:53Z</time>
      </trkpt>
      <trkpt lat="58.6736796889" lon="16.0389039014">
        <ele>92.9</ele>
        <time>2012-07-07T07:42:01Z</time>
      </trkpt>
      <trkpt lat="58.673861241" lon="16.0393369943">
        <ele>93.39</ele>
        <time>2012-07-07T07:42:11Z</time>
      </trkpt>
      <trkpt lat="58.6741121113" lon="16.0396303609">
        <ele>92.9</ele>
        <time>2012-07-07T07:42:21Z</time>
      </trkpt>
      <trkpt lat="58.6742779892" lon="16.039822055">
        <ele>92.9</ele>
        <time>2012-07-07T07:42:28Z</time>
      </trkpt>
      <trkpt lat="58.6742981058" lon="16.039856337">
        <ele>92.42</ele>
        <time>2012-07-07T07:42:29Z</time>
      </trkpt>
      <trkpt lat="58.6743608862" lon="16.0399339534">
        <ele>92.42</ele>
        <time>2012-07-07T07:42:32Z</time>
      </trkpt>
      <trkpt lat="58.6745311227" lon="16.0402154177">
        <ele>92.9</ele>
        <time>2012-07-07T07:42:41Z</time>
      </trkpt>
      <trkpt lat="58.6746966653" lon="16.040458912">
        <ele>93.39</ele>
        <time>2012-07-07T07:42:50Z</time>
      </trkpt>
      <trkpt lat="58.6748911254" lon="16.0408816952">
        <ele>93.87</ele>
        <time>2012-07-07T07:43:02Z</time>
      </trkpt>
      <trkpt lat="58.6749035306" lon="16.040926287">
        <ele>94.35</ele>
        <time>2012-07-07T07:43:03Z</time>
      </trkpt>
      <trkpt lat="58.6749720946" lon="16.0411579628">
        <ele>94.83</ele>
        <time>2012-07-07T07:43:09Z</time>
      </trkpt>
      <trkpt lat="58.6751170177" lon="16.0415730346">
        <ele>97.71</ele>
        <time>2012-07-07T07:43:20Z</time>
      </trkpt>
      <trkpt lat="58.6752111465" lon="16.0417412594">
        <ele>99.15</ele>
        <time>2012-07-07T07:43:25Z</time>
      </trkpt>
      <trkpt lat="58.6752725858" lon="16.0418234859">
        <ele>100.11</ele>
        <time>2012-07-07T07:43:28Z</time>
      </trkpt>
      <trkpt lat="58.6753750965" lon="16.0419109091">
        <ele>101.08</ele>
        <time>2012-07-07T07:43:33Z</time>
      </trkpt>
      <trkpt lat="58.6755268089" lon="16.0420389008">
        <ele>101.56</ele>
        <time>2012-07-07T07:43:40Z</time>
      </trkpt>
      <trkpt lat="58.6758003943" lon="16.0422175191">
        <ele>102.04</ele>
        <time>2012-07-07T07:43:51Z</time>
      </trkpt>
      <trkpt lat="58.6759682838" lon="16.0423735902">
        <ele>101.56</ele>
        <time>2012-07-07T07:43:58Z</time>
      </trkpt>
      <trkpt lat="58.676222926" lon="16.0426249634">
        <ele>101.56</ele>
        <time>2012-07-07T07:44:09Z</time>
      </trkpt>
      <trkpt lat="58.6764152069" lon="16.0428959504">
        <ele>102.04</ele>
        <time>2012-07-07T07:44:18Z</time>
      </trkpt>
      <trkpt lat="58.6766524985" lon="16.0433497466">
        <ele>101.56</ele>
        <time>2012-07-07T07:44:30Z</time>
      </trkpt>
      <trkpt lat="58.676819969" lon="16.0437181313">
        <ele>102.52</ele>
        <time>2012-07-07T07:44:40Z</time>
      </trkpt>
      <trkpt lat="58.6770144291" lon="16.0439489689">
        <ele>103</ele>
        <time>2012-07-07T07:44:49Z</time>
      </trkpt>
      <trkpt lat="58.6772904452" lon="16.0439883638">
        <ele>103</ele>
        <time>2012-07-07T07:45:00Z</time>
      </trkpt>
      <trkpt lat="58.6776337679" lon="16.0440881923">
        <ele>102.04</ele>
        <time>2012-07-07T07:45:12Z</time>
      </trkpt>
      <trkpt lat="58.6779112089" lon="16.0443445947">
        <ele>102.52</ele>
        <time>2012-07-07T07:45:24Z</time>
      </trkpt>
      <trkpt lat="58.6780488398" lon="16.0444715805">
        <ele>103</ele>
        <time>2012-07-07T07:45:30Z</time>
      </trkpt>
      <trkpt lat="58.6782180704" lon="16.0444782022">
        <ele>103.48</ele>
        <time>2012-07-07T07:45:37Z</time>
      </trkpt>
      <trkpt lat="58.6782882269" lon="16.0443257354">
        <ele>104.92</ele>
        <time>2012-07-07T07:45:42Z</time>
      </trkpt>
      <trkpt lat="58.6783701181" lon="16.0441449378">
        <ele>105.4</ele>
        <time>2012-07-07T07:45:48Z</time>
      </trkpt>
      <trkpt lat="58.678450333" lon="16.04403832">
        <ele>107.81</ele>
        <time>2012-07-07T07:45:54Z</time>
      </trkpt>
      <trkpt lat="58.6785303801" lon="16.043940587">
        <ele>109.73</ele>
        <time>2012-07-07T07:46:00Z</time>
      </trkpt>
      <trkpt lat="58.6788035464" lon="16.0435582884">
        <ele>111.17</ele>
        <time>2012-07-07T07:46:15Z</time>
      </trkpt>
      <trkpt lat="58.6789970007" lon="16.0431639198">
        <ele>112.13</ele>
        <time>2012-07-07T07:46:26Z</time>
      </trkpt>
      <trkpt lat="58.679076964" lon="16.0431246087">
        <ele>113.09</ele>
        <time>2012-07-07T07:46:32Z</time>
      </trkpt>
      <trkpt lat="58.6792815663" lon="16.0433317255">
        <ele>115.01</ele>
        <time>2012-07-07T07:46:43Z</time>
      </trkpt>
      <trkpt lat="58.6793260742" lon="16.0434675124">
        <ele>115.98</ele>
        <time>2012-07-07T07:46:48Z</time>
      </trkpt>
      <trkpt lat="58.6793874297" lon="16.0435167979">
        <ele>116.94</ele>
        <time>2012-07-07T07:46:52Z</time>
      </trkpt>
      <trkpt lat="58.6795150861" lon="16.0435986053">
        <ele>116.46</ele>
        <time>2012-07-07T07:46:58Z</time>
      </trkpt>
      <trkpt lat="58.6795969773" lon="16.0436168779">
        <ele>116.46</ele>
        <time>2012-07-07T07:47:01Z</time>
      </trkpt>
      <trkpt lat="58.6798429862" lon="16.0433417">
        <ele>115.5</ele>
        <time>2012-07-07T07:47:13Z</time>
      </trkpt>
      <trkpt lat="58.680066783" lon="16.0431431327">
        <ele>118.86</ele>
        <time>2012-07-07T07:47:24Z</time>
      </trkpt>
      <trkpt lat="58.6801256239" lon="16.0430747364">
        <ele>120.3</ele>
        <time>2012-07-07T07:47:28Z</time>
      </trkpt>
      <trkpt lat="58.6801449861" lon="16.0430599004">
        <ele>119.82</ele>
        <time>2012-07-07T07:47:29Z</time>
      </trkpt>
      <trkpt lat="58.6803249456" lon="16.0428563878">
        <ele>123.19</ele>
        <time>2012-07-07T07:47:39Z</time>
      </trkpt>
      <trkpt lat="58.6805796716" lon="16.0425999854">
        <ele>125.59</ele>
        <time>2012-07-07T07:47:50Z</time>
      </trkpt>
      <trkpt lat="58.6805977765" lon="16.0425646976">
        <ele>125.11</ele>
        <time>2012-07-07T07:47:51Z</time>
      </trkpt>
      <trkpt lat="58.6806631554" lon="16.0424271505">
        <ele>125.59</ele>
        <time>2012-07-07T07:47:55Z</time>
      </trkpt>
      <trkpt lat="58.6807380896" lon="16.0422242247">
        <ele>126.55</ele>
        <time>2012-07-07T07:48:01Z</time>
      </trkpt>
      <trkpt lat="58.6808064021" lon="16.0420960654">
        <ele>126.55</ele>
        <time>2012-07-07T07:48:05Z</time>
      </trkpt>
      <trkpt lat="58.6810179614" lon="16.0417669918">
        <ele>123.19</ele>
        <time>2012-07-07T07:48:16Z</time>
      </trkpt>
      <trkpt lat="58.6811043788" lon="16.0414905567">
        <ele>122.71</ele>
        <time>2012-07-07T07:48:22Z</time>
      </trkpt>
      <trkpt lat="58.6812136788" lon="16.0409872234">
        <ele>122.71</ele>
        <time>2012-07-07T07:48:34Z</time>
      </trkpt>
      <trkpt lat="58.6813675705" lon="16.0406198446">
        <ele>123.67</ele>
        <time>2012-07-07T07:48:44Z</time>
      </trkpt>
      <trkpt lat="58.6815043632" lon="16.0403988138">
        <ele>123.67</ele>
        <time>2012-07-07T07:48:52Z</time>
      </trkpt>
      <trkpt lat="58.6815788783" lon="16.0402734205">
        <ele>123.19</ele>
        <time>2012-07-07T07:48:56Z</time>
      </trkpt>
      <trkpt lat="58.6817004159" lon="16.0403724108">
        <ele>122.22</ele>
        <time>2012-07-07T07:49:02Z</time>
      </trkpt>
      <trkpt lat="58.6817757692" lon="16.0405760072">
        <ele>121.26</ele>
        <time>2012-07-07T07:49:10Z</time>
      </trkpt>
      <trkpt lat="58.6818077881" lon="16.0406985506">
        <ele>121.26</ele>
        <time>2012-07-07T07:49:13Z</time>
      </trkpt>
      <trkpt lat="58.6819117237" lon="16.0408354271">
        <ele>119.34</ele>
        <time>2012-07-07T07:49:18Z</time>
      </trkpt>
      <trkpt lat="58.6819503643" lon="16.0409562103">
        <ele>118.86</ele>
        <time>2012-07-07T07:49:28Z</time>
      </trkpt>
      <trkpt lat="58.6819215305" lon="16.0409898218">
        <ele>118.86</ele>
        <time>2012-07-07T07:50:02Z</time>
      </trkpt>
      <trkpt lat="58.6819126457" lon="16.0409626644">
        <ele>119.82</ele>
        <time>2012-07-07T07:50:28Z</time>
      </trkpt>
      <trkpt lat="58.6819276493" lon="16.0410836153">
        <ele>118.86</ele>
        <time>2012-07-07T07:50:49Z</time>
      </trkpt>
      <trkpt lat="58.6819718219" lon="16.0411155503">
        <ele>118.86</ele>
        <time>2012-07-07T07:51:20Z</time>
      </trkpt>
      <trkpt lat="58.6819589976" lon="16.0410469864">
        <ele>119.34</ele>
        <time>2012-07-07T07:51:40Z</time>
      </trkpt>
      <trkpt lat="58.6819703132" lon="16.040962413">
        <ele>119.34</ele>
        <time>2012-07-07T07:52:05Z</time>
      </trkpt>
      <trkpt lat="58.6820255499" lon="16.0410636663">
        <ele>119.34</ele>
        <time>2012-07-07T07:52:17Z</time>
      </trkpt>
      <trkpt lat="58.682042649" lon="16.0410776641">
        <ele>119.82</ele>
        <time>2012-07-07T07:52:22Z</time>
      </trkpt>
      <trkpt lat="58.6821194272" lon="16.0411765706">
        <ele>118.38</ele>
        <time>2012-07-07T07:52:29Z</time>
      </trkpt>
      <trkpt lat="58.6821457464" lon="16.0411836114">
        <ele>118.38</ele>
        <time>2012-07-07T07:52:31Z</time>
      </trkpt>
      <trkpt lat="58.6822153162" lon="16.041275477">
        <ele>118.86</ele>
        <time>2012-07-07T07:52:42Z</time>
      </trkpt>
      <trkpt lat="58.6823152285" lon="16.0414288659">
        <ele>118.86</ele>
        <time>2012-07-07T07:52:51Z</time>
      </trkpt>
      <trkpt lat="58.6823909171" lon="16.0415939894">
        <ele>120.3</ele>
        <time>2012-07-07T07:52:58Z</time>
      </trkpt>
      <trkpt lat="58.6824914999" lon="16.0418114997">
        <ele>121.26</ele>
        <time>2012-07-07T07:53:06Z</time>
      </trkpt>
      <trkpt lat="58.6825567111" lon="16.0418964922">
        <ele>121.26</ele>
        <time>2012-07-07T07:53:10Z</time>
      </trkpt>
      <trkpt lat="58.6826321483" lon="16.0419955663">
        <ele>121.74</ele>
        <time>2012-07-07T07:53:14Z</time>
      </trkpt>
      <trkpt lat="58.6827268638" lon="16.0420917906">
        <ele>121.26</ele>
        <time>2012-07-07T07:53:19Z</time>
      </trkpt>
      <trkpt lat="58.6828873772" lon="16.0423380509">
        <ele>120.78</ele>
        <time>2012-07-07T07:53:28Z</time>
      </trkpt>
      <trkpt lat="58.68294538" lon="16.0424445011">
        <ele>120.78</ele>
        <time>2012-07-07T07:53:32Z</time>
      </trkpt>
      <trkpt lat="58.6829932407" lon="16.0426082835">
        <ele>122.22</ele>
        <time>2012-07-07T07:53:37Z</time>
      </trkpt>
      <trkpt lat="58.6831066478" lon="16.0427465849">
        <ele>122.71</ele>
        <time>2012-07-07T07:53:43Z</time>
      </trkpt>
      <trkpt lat="58.6833294388" lon="16.0430347547">
        <ele>125.11</ele>
        <time>2012-07-07T07:53:55Z</time>
      </trkpt>
      <trkpt lat="58.6833920516" lon="16.0431278776">
        <ele>126.55</ele>
        <time>2012-07-07T07:53:59Z</time>
      </trkpt>
      <trkpt lat="58.6834974121" lon="16.0432040691">
        <ele>125.59</ele>
        <time>2012-07-07T07:54:04Z</time>
      </trkpt>
      <trkpt lat="58.6836054549" lon="16.0434388462">
        <ele>126.07</ele>
        <time>2012-07-07T07:54:11Z</time>
      </trkpt>
      <trkpt lat="58.6836477835" lon="16.0435287002">
        <ele>126.07</ele>
        <time>2012-07-07T07:54:14Z</time>
      </trkpt>
      <trkpt lat="58.6836807244" lon="16.0436696">
        <ele>127.51</ele>
        <time>2012-07-07T07:54:18Z</time>
      </trkpt>
      <trkpt lat="58.6836854182" lon="16.0437546764">
        <ele>127.03</ele>
        <time>2012-07-07T07:54:20Z</time>
      </trkpt>
      <trkpt lat="58.6836991645" lon="16.043905383">
        <ele>127.51</ele>
        <time>2012-07-07T07:54:24Z</time>
      </trkpt>
      <trkpt lat="58.6838061176" lon="16.0443781223">
        <ele>128.95</ele>
        <time>2012-07-07T07:54:38Z</time>
      </trkpt>
      <trkpt lat="58.6838667188" lon="16.0446295794">
        <ele>130.88</ele>
        <time>2012-07-07T07:54:45Z</time>
      </trkpt>
      <trkpt lat="58.683909215" lon="16.0447625164">
        <ele>130.88</ele>
        <time>2012-07-07T07:54:50Z</time>
      </trkpt>
      <trkpt lat="58.683926817" lon="16.0448874068">
        <ele>130.88</ele>
        <time>2012-07-07T07:54:53Z</time>
      </trkpt>
      <trkpt lat="58.6838796269" lon="16.0452943482">
        <ele>131.84</ele>
        <time>2012-07-07T07:55:02Z</time>
      </trkpt>
      <trkpt lat="58.683858756" lon="16.0455069132">
        <ele>131.84</ele>
        <time>2012-07-07T07:55:07Z</time>
      </trkpt>
      <trkpt lat="58.6838051956" lon="16.0458796564">
        <ele>129.92</ele>
        <time>2012-07-07T07:55:17Z</time>
      </trkpt>
      <trkpt lat="58.683811985" lon="16.0462395754">
        <ele>128.95</ele>
        <time>2012-07-07T07:55:28Z</time>
      </trkpt>
      <trkpt lat="58.6837925389" lon="16.0467393883">
        <ele>126.07</ele>
        <time>2012-07-07T07:55:40Z</time>
      </trkpt>
      <trkpt lat="58.6838072911" lon="16.0469200183">
        <ele>126.55</ele>
        <time>2012-07-07T07:55:47Z</time>
      </trkpt>
      <trkpt lat="58.6838492006" lon="16.0471888259">
        <ele>125.59</ele>
        <time>2012-07-07T07:55:52Z</time>
      </trkpt>
      <trkpt lat="58.6840297468" lon="16.0477023013">
        <ele>124.15</ele>
        <time>2012-07-07T07:56:05Z</time>
      </trkpt>
      <trkpt lat="58.6840951256" lon="16.0478566121">
        <ele>124.63</ele>
        <time>2012-07-07T07:56:10Z</time>
      </trkpt>
      <trkpt lat="58.6841919366" lon="16.0480360687">
        <ele>124.63</ele>
        <time>2012-07-07T07:56:23Z</time>
      </trkpt>
      <trkpt lat="58.6842069402" lon="16.0481293593">
        <ele>124.63</ele>
        <time>2012-07-07T07:56:25Z</time>
      </trkpt>
      <trkpt lat="58.684258908" lon="16.0484002624">
        <ele>124.63</ele>
        <time>2012-07-07T07:56:31Z</time>
      </trkpt>
      <trkpt lat="58.6843305733" lon="16.0485679843">
        <ele>124.15</ele>
        <time>2012-07-07T07:56:36Z</time>
      </trkpt>
      <trkpt lat="58.684378434" lon="16.0486598499">
        <ele>123.19</ele>
        <time>2012-07-07T07:56:40Z</time>
      </trkpt>
      <trkpt lat="58.6845130473" lon="16.0489500314">
        <ele>121.74</ele>
        <time>2012-07-07T07:56:49Z</time>
      </trkpt>
      <trkpt lat="58.684535427" lon="16.049249433">
        <ele>122.71</ele>
        <time>2012-07-07T07:56:56Z</time>
      </trkpt>
      <trkpt lat="58.6846046615" lon="16.0494996328">
        <ele>121.74</ele>
        <time>2012-07-07T07:57:03Z</time>
      </trkpt>
      <trkpt lat="58.6846501753" lon="16.0495914146">
        <ele>120.3</ele>
        <time>2012-07-07T07:57:07Z</time>
      </trkpt>
      <trkpt lat="58.684842037" lon="16.0498480685">
        <ele>118.38</ele>
        <time>2012-07-07T07:57:17Z</time>
      </trkpt>
      <trkpt lat="58.6849686876" lon="16.0502103344">
        <ele>116.46</ele>
        <time>2012-07-07T07:57:28Z</time>
      </trkpt>
      <trkpt lat="58.6849728785" lon="16.0502516571">
        <ele>116.46</ele>
        <time>2012-07-07T07:57:29Z</time>
      </trkpt>
      <trkpt lat="58.685000455" lon="16.0504479613">
        <ele>114.05</ele>
        <time>2012-07-07T07:57:35Z</time>
      </trkpt>
      <trkpt lat="58.6850297917" lon="16.0505265836">
        <ele>113.57</ele>
        <time>2012-07-07T07:57:38Z</time>
      </trkpt>
      <trkpt lat="58.685052339" lon="16.0505907889">
        <ele>112.61</ele>
        <time>2012-07-07T07:57:40Z</time>
      </trkpt>
      <trkpt lat="58.6851463001" lon="16.0509463493">
        <ele>110.21</ele>
        <time>2012-07-07T07:57:51Z</time>
      </trkpt>
      <trkpt lat="58.6852132715" lon="16.0510201938">
        <ele>108.77</ele>
        <time>2012-07-07T07:57:55Z</time>
      </trkpt>
      <trkpt lat="58.6852659937" lon="16.0510672163">
        <ele>108.29</ele>
        <time>2012-07-07T07:57:59Z</time>
      </trkpt>
      <trkpt lat="58.6853997689" lon="16.0510947928">
        <ele>106.84</ele>
        <time>2012-07-07T07:58:05Z</time>
      </trkpt>
      <trkpt lat="58.6854220647" lon="16.051115077">
        <ele>106.36</ele>
        <time>2012-07-07T07:58:06Z</time>
      </trkpt>
      <trkpt lat="58.6856687441" lon="16.051186407">
        <ele>105.4</ele>
        <time>2012-07-07T07:58:21Z</time>
      </trkpt>
      <trkpt lat="58.6858290061" lon="16.0511758458">
        <ele>105.88</ele>
        <time>2012-07-07T07:58:31Z</time>
      </trkpt>
      <trkpt lat="58.6858935468" lon="16.0511466768">
        <ele>106.84</ele>
        <time>2012-07-07T07:58:34Z</time>
      </trkpt>
      <trkpt lat="58.6859687325" lon="16.0510895122">
        <ele>107.32</ele>
        <time>2012-07-07T07:58:37Z</time>
      </trkpt>
      <trkpt lat="58.6861675512" lon="16.0507842433">
        <ele>105.88</ele>
        <time>2012-07-07T07:58:49Z</time>
      </trkpt>
      <trkpt lat="58.6863567308" lon="16.0506041162">
        <ele>107.81</ele>
        <time>2012-07-07T07:59:02Z</time>
      </trkpt>
      <trkpt lat="58.6865723971" lon="16.0504803155">
        <ele>108.29</ele>
        <time>2012-07-07T07:59:12Z</time>
      </trkpt>
      <trkpt lat="58.6867680307" lon="16.0504025314">
        <ele>108.29</ele>
        <time>2012-07-07T07:59:23Z</time>
      </trkpt>
      <trkpt lat="58.6869112775" lon="16.0503173713">
        <ele>109.25</ele>
        <time>2012-07-07T07:59:30Z</time>
      </trkpt>
      <trkpt lat="58.6870199069" lon="16.0503312014">
        <ele>109.73</ele>
        <time>2012-07-07T07:59:34Z</time>
      </trkpt>
      <trkpt lat="58.6871449649" lon="16.0503251664">
        <ele>110.69</ele>
        <time>2012-07-07T07:59:39Z</time>
      </trkpt>
      <trkpt lat="58.6873213202" lon="16.0502502322">
        <ele>112.13</ele>
        <time>2012-07-07T07:59:47Z</time>
      </trkpt>
      <trkpt lat="58.6874389183" lon="16.0501857754">
        <ele>110.69</ele>
        <time>2012-07-07T07:59:52Z</time>
      </trkpt>
      <trkpt lat="58.6877453607" lon="16.0499879625">
        <ele>110.21</ele>
        <time>2012-07-07T08:00:05Z</time>
      </trkpt>
      <trkpt lat="58.6877877731" lon="16.0499796644">
        <ele>109.73</ele>
        <time>2012-07-07T08:00:07Z</time>
      </trkpt>
      <trkpt lat="58.6878978275" lon="16.0498781595">
        <ele>108.77</ele>
        <time>2012-07-07T08:00:12Z</time>
      </trkpt>
      <trkpt lat="58.6880540662" lon="16.0497032292">
        <ele>108.77</ele>
        <time>2012-07-07T08:00:21Z</time>
      </trkpt>
      <trkpt lat="58.6880970653" lon="16.0496257804">
        <ele>108.29</ele>
        <time>2012-07-07T08:00:26Z</time>
      </trkpt>
      <trkpt lat="58.6880966462" lon="16.0495944321">
        <ele>108.77</ele>
        <time>2012-07-07T08:00:35Z</time>
      </trkpt>
      <trkpt lat="58.6881050281" lon="16.0495599825">
        <ele>108.29</ele>
        <time>2012-07-07T08:00:38Z</time>
      </trkpt>
      <trkpt lat="58.6881362926" lon="16.0494090244">
        <ele>109.25</ele>
        <time>2012-07-07T08:00:43Z</time>
      </trkpt>
      <trkpt lat="58.6881771125" lon="16.04900904">
        <ele>110.21</ele>
        <time>2012-07-07T08:00:53Z</time>
      </trkpt>
      <trkpt lat="58.6882186029" lon="16.0489305854">
        <ele>109.73</ele>
        <time>2012-07-07T08:01:04Z</time>
      </trkpt>
      <trkpt lat="58.6882070359" lon="16.0489695612">
        <ele>109.25</ele>
        <time>2012-07-07T08:01:16Z</time>
      </trkpt>
      <trkpt lat="58.6881692335" lon="16.0491621774">
        <ele>109.73</ele>
        <time>2012-07-07T08:01:21Z</time>
      </trkpt>
      <trkpt lat="58.6881491169" lon="16.0494432226">
        <ele>109.25</ele>
        <time>2012-07-07T08:01:27Z</time>
      </trkpt>
      <trkpt lat="58.6881331075" lon="16.049601892">
        <ele>108.77</ele>
        <time>2012-07-07T08:01:35Z</time>
      </trkpt>
      <trkpt lat="58.6881392263" lon="16.0496755689">
        <ele>108.29</ele>
        <time>2012-07-07T08:01:41Z</time>
      </trkpt>
      <trkpt lat="58.6881368794" lon="16.0498326458">
        <ele>109.25</ele>
        <time>2012-07-07T08:01:51Z</time>
      </trkpt>
      <trkpt lat="58.6881563254" lon="16.0498597194">
        <ele>109.25</ele>
        <time>2012-07-07T08:01:54Z</time>
      </trkpt>
      <trkpt lat="58.6881873384" lon="16.0498800874">
        <ele>108.29</ele>
        <time>2012-07-07T08:01:56Z</time>
      </trkpt>
      <trkpt lat="58.6882471852" lon="16.0499893874">
        <ele>109.25</ele>
        <time>2012-07-07T08:02:00Z</time>
      </trkpt>
      <trkpt lat="58.6883480195" lon="16.0500787385">
        <ele>110.69</ele>
        <time>2012-07-07T08:02:06Z</time>
      </trkpt>
      <trkpt lat="58.6885069404" lon="16.0501775611">
        <ele>111.17</ele>
        <time>2012-07-07T08:02:13Z</time>
      </trkpt>
      <trkpt lat="58.6885427311" lon="16.0503369011">
        <ele>111.17</ele>
        <time>2012-07-07T08:02:17Z</time>
      </trkpt>
      <trkpt lat="58.6885964591" lon="16.05081819">
        <ele>113.09</ele>
        <time>2012-07-07T08:02:28Z</time>
      </trkpt>
      <trkpt lat="58.6886169948" lon="16.0508842394">
        <ele>113.09</ele>
        <time>2012-07-07T08:02:30Z</time>
      </trkpt>
      <trkpt lat="58.6886770092" lon="16.050951127">
        <ele>113.57</ele>
        <time>2012-07-07T08:02:34Z</time>
      </trkpt>
      <trkpt lat="58.6889561266" lon="16.0510360356">
        <ele>112.61</ele>
        <time>2012-07-07T08:02:46Z</time>
      </trkpt>
      <trkpt lat="58.6889806017" lon="16.0510557331">
        <ele>111.65</ele>
        <time>2012-07-07T08:02:48Z</time>
      </trkpt>
      <trkpt lat="58.6889916658" lon="16.0510117281">
        <ele>112.61</ele>
        <time>2012-07-07T08:02:52Z</time>
      </trkpt>
      <trkpt lat="58.6890351679" lon="16.0510988999">
        <ele>111.65</ele>
        <time>2012-07-07T08:02:55Z</time>
      </trkpt>
      <trkpt lat="58.6890106089" lon="16.0513920989">
        <ele>110.69</ele>
        <time>2012-07-07T08:03:02Z</time>
      </trkpt>
      <trkpt lat="58.6889987905" lon="16.0514521971">
        <ele>110.69</ele>
        <time>2012-07-07T08:03:04Z</time>
      </trkpt>
      <trkpt lat="58.6889645923" lon="16.0515676998">
        <ele>110.69</ele>
        <time>2012-07-07T08:03:08Z</time>
      </trkpt>
      <trkpt lat="58.6889715493" lon="16.0519443825">
        <ele>110.69</ele>
        <time>2012-07-07T08:03:18Z</time>
      </trkpt>
      <trkpt lat="58.6889885645" lon="16.0521934088">
        <ele>110.69</ele>
        <time>2012-07-07T08:03:23Z</time>
      </trkpt>
      <trkpt lat="58.6889979523" lon="16.052398514">
        <ele>108.77</ele>
        <time>2012-07-07T08:03:31Z</time>
      </trkpt>
      <trkpt lat="58.6889956053" lon="16.0524251685">
        <ele>109.25</ele>
        <time>2012-07-07T08:03:32Z</time>
      </trkpt>
      <trkpt lat="58.6890102737" lon="16.0526933894">
        <ele>109.25</ele>
        <time>2012-07-07T08:03:39Z</time>
      </trkpt>
      <trkpt lat="58.6889538635" lon="16.0529091395">
        <ele>109.73</ele>
        <time>2012-07-07T08:03:45Z</time>
      </trkpt>
      <trkpt lat="58.688897118" lon="16.0529467743">
        <ele>109.73</ele>
        <time>2012-07-07T08:03:48Z</time>
      </trkpt>
      <trkpt lat="58.6887574755" lon="16.0532139055">
        <ele>111.17</ele>
        <time>2012-07-07T08:03:58Z</time>
      </trkpt>
      <trkpt lat="58.6887382809" lon="16.0533193499">
        <ele>111.65</ele>
        <time>2012-07-07T08:04:02Z</time>
      </trkpt>
      <trkpt lat="58.6886255443" lon="16.0534671228">
        <ele>113.09</ele>
        <time>2012-07-07T08:04:08Z</time>
      </trkpt>
      <trkpt lat="58.6885965429" lon="16.0535408836">
        <ele>113.57</ele>
        <time>2012-07-07T08:04:11Z</time>
      </trkpt>
      <trkpt lat="58.6885328405" lon="16.0536205117">
        <ele>115.01</ele>
        <time>2012-07-07T08:04:15Z</time>
      </trkpt>
      <trkpt lat="58.6884449981" lon="16.0537075158">
        <ele>115.01</ele>
        <time>2012-07-07T08:04:19Z</time>
      </trkpt>
      <trkpt lat="58.6884237919" lon="16.0537573043">
        <ele>115.01</ele>
        <time>2012-07-07T08:04:21Z</time>
      </trkpt>
      <trkpt lat="58.6883470137" lon="16.0540222563">
        <ele>115.98</ele>
        <time>2012-07-07T08:04:28Z</time>
      </trkpt>
      <trkpt lat="58.6882192735" lon="16.054061735">
        <ele>116.46</ele>
        <time>2012-07-07T08:04:34Z</time>
      </trkpt>
      <trkpt lat="58.6881139968" lon="16.0540573765">
        <ele>118.38</ele>
        <time>2012-07-07T08:04:39Z</time>
      </trkpt>
      <trkpt lat="58.6880606879" lon="16.0540463962">
        <ele>117.9</ele>
        <time>2012-07-07T08:04:41Z</time>
      </trkpt>
      <trkpt lat="58.6878653057" lon="16.0539194103">
        <ele>116.94</ele>
        <time>2012-07-07T08:04:51Z</time>
      </trkpt>
      <trkpt lat="58.6878282577" lon="16.0539018922">
        <ele>116.46</ele>
        <time>2012-07-07T08:04:53Z</time>
      </trkpt>
      <trkpt lat="58.6877604481" lon="16.0538780037">
        <ele>115.5</ele>
        <time>2012-07-07T08:04:57Z</time>
      </trkpt>
      <trkpt lat="58.6877093185" lon="16.0539015569">
        <ele>114.05</ele>
        <time>2012-07-07T08:05:00Z</time>
      </trkpt>
      <trkpt lat="58.6876724381" lon="16.0539479926">
        <ele>114.05</ele>
        <time>2012-07-07T08:05:03Z</time>
      </trkpt>
      <trkpt lat="58.6875859369" lon="16.0538638383">
        <ele>112.13</ele>
        <time>2012-07-07T08:05:07Z</time>
      </trkpt>
      <trkpt lat="58.6873906385" lon="16.0538847931">
        <ele>113.09</ele>
        <time>2012-07-07T08:05:16Z</time>
      </trkpt>
      <trkpt lat="58.6873313785" lon="16.054194672">
        <ele>114.05</ele>
        <time>2012-07-07T08:05:25Z</time>
      </trkpt>
      <trkpt lat="58.6873214878" lon="16.0542848613">
        <ele>115.01</ele>
        <time>2012-07-07T08:05:28Z</time>
      </trkpt>
      <trkpt lat="58.6872894689" lon="16.0544361547">
        <ele>115.01</ele>
        <time>2012-07-07T08:05:32Z</time>
      </trkpt>
      <trkpt lat="58.6872835178" lon="16.0546443611">
        <ele>115.98</ele>
        <time>2012-07-07T08:05:38Z</time>
      </trkpt>
      <trkpt lat="58.6871953402" lon="16.055012159">
        <ele>117.42</ele>
        <time>2012-07-07T08:05:47Z</time>
      </trkpt>
      <trkpt lat="58.6870806757" lon="16.0554330144">
        <ele>115.98</ele>
        <time>2012-07-07T08:05:58Z</time>
      </trkpt>
      <trkpt lat="58.6870836932" lon="16.0555294063">
        <ele>115.5</ele>
        <time>2012-07-07T08:06:01Z</time>
      </trkpt>
      <trkpt lat="58.6870811787" lon="16.0556625947">
        <ele>115.5</ele>
        <time>2012-07-07T08:06:05Z</time>
      </trkpt>
      <trkpt lat="58.6871385109" lon="16.055873232">
        <ele>115.01</ele>
        <time>2012-07-07T08:06:11Z</time>
      </trkpt>
      <trkpt lat="58.6872062366" lon="16.0560992919">
        <ele>115.98</ele>
        <time>2012-07-07T08:06:16Z</time>
      </trkpt>
      <trkpt lat="58.687430704" lon="16.0564974323">
        <ele>116.94</ele>
        <time>2012-07-07T08:06:28Z</time>
      </trkpt>
      <trkpt lat="58.6874726973" lon="16.0566105042">
        <ele>116.94</ele>
        <time>2012-07-07T08:06:31Z</time>
      </trkpt>
      <trkpt lat="58.6875973362" lon="16.0569571797">
        <ele>118.86</ele>
        <time>2012-07-07T08:06:41Z</time>
      </trkpt>
      <trkpt lat="58.6876708455" lon="16.0572324414">
        <ele>119.82</ele>
        <time>2012-07-07T08:06:48Z</time>
      </trkpt>
      <trkpt lat="58.6877586041" lon="16.0577803664">
        <ele>119.82</ele>
        <time>2012-07-07T08:07:00Z</time>
      </trkpt>
      <trkpt lat="58.6878273357" lon="16.0580104496">
        <ele>118.86</ele>
        <time>2012-07-07T08:07:07Z</time>
      </trkpt>
      <trkpt lat="58.688014755" lon="16.0581272934">
        <ele>118.38</ele>
        <time>2012-07-07T08:07:16Z</time>
      </trkpt>
      <trkpt lat="58.6881405674" lon="16.0585856996">
        <ele>118.86</ele>
        <time>2012-07-07T08:07:27Z</time>
      </trkpt>
      <trkpt lat="58.6880005896" lon="16.0586864501">
        <ele>120.3</ele>
        <time>2012-07-07T08:07:34Z</time>
      </trkpt>
      <trkpt lat="58.6878133379" lon="16.0587220732">
        <ele>121.74</ele>
        <time>2012-07-07T08:07:42Z</time>
      </trkpt>
      <trkpt lat="58.6877001822" lon="16.0587129369">
        <ele>123.19</ele>
        <time>2012-07-07T08:07:48Z</time>
      </trkpt>
      <trkpt lat="58.687590966" lon="16.0587237496">
        <ele>124.63</ele>
        <time>2012-07-07T08:07:53Z</time>
      </trkpt>
      <trkpt lat="58.6875156965" lon="16.0587325506">
        <ele>125.11</ele>
        <time>2012-07-07T08:07:56Z</time>
      </trkpt>
      <trkpt lat="58.6874851864" lon="16.0587446205">
        <ele>125.59</ele>
        <time>2012-07-07T08:07:58Z</time>
      </trkpt>
      <trkpt lat="58.6873489805" lon="16.0587585345">
        <ele>127.03</ele>
        <time>2012-07-07T08:08:05Z</time>
      </trkpt>
      <trkpt lat="58.6871484853" lon="16.0587923136">
        <ele>129.43</ele>
        <time>2012-07-07T08:08:15Z</time>
      </trkpt>
      <trkpt lat="58.6869437993" lon="16.0588343907">
        <ele>131.36</ele>
        <time>2012-07-07T08:08:25Z</time>
      </trkpt>
      <trkpt lat="58.6868727207" lon="16.0588502325">
        <ele>131.36</ele>
        <time>2012-07-07T08:08:28Z</time>
      </trkpt>
      <trkpt lat="58.6867672764" lon="16.0589349736">
        <ele>131.84</ele>
        <time>2012-07-07T08:08:33Z</time>
      </trkpt>
      <trkpt lat="58.6867237743" lon="16.0589661542">
        <ele>131.84</ele>
        <time>2012-07-07T08:08:35Z</time>
      </trkpt>
      <trkpt lat="58.6866557971" lon="16.0590583552">
        <ele>131.36</ele>
        <time>2012-07-07T08:08:39Z</time>
      </trkpt>
      <trkpt lat="58.6864321679" lon="16.0591905378">
        <ele>130.88</ele>
        <time>2012-07-07T08:08:48Z</time>
      </trkpt>
      <trkpt lat="58.6861722451" lon="16.0591549985">
        <ele>130.88</ele>
        <time>2012-07-07T08:08:57Z</time>
      </trkpt>
      <trkpt lat="58.6860456783" lon="16.059129769">
        <ele>131.36</ele>
        <time>2012-07-07T08:09:02Z</time>
      </trkpt>
      <trkpt lat="58.6859384738" lon="16.0590763763">
        <ele>130.88</ele>
        <time>2012-07-07T08:09:07Z</time>
      </trkpt>
      <trkpt lat="58.6857196223" lon="16.0590798128">
        <ele>131.84</ele>
        <time>2012-07-07T08:09:15Z</time>
      </trkpt>
      <trkpt lat="58.6857004277" lon="16.0590953194">
        <ele>132.32</ele>
        <time>2012-07-07T08:09:16Z</time>
      </trkpt>
      <trkpt lat="58.6856586859" lon="16.0591454431">
        <ele>132.32</ele>
        <time>2012-07-07T08:09:19Z</time>
      </trkpt>
      <trkpt lat="58.6854472104" lon="16.0593564156">
        <ele>132.32</ele>
        <time>2012-07-07T08:09:29Z</time>
      </trkpt>
      <trkpt lat="58.6853678338" lon="16.0594481975">
        <ele>132.32</ele>
        <time>2012-07-07T08:09:32Z</time>
      </trkpt>
      <trkpt lat="58.685327014" lon="16.059510475">
        <ele>132.32</ele>
        <time>2012-07-07T08:09:34Z</time>
      </trkpt>
      <trkpt lat="58.6850801669" lon="16.059827311">
        <ele>132.8</ele>
        <time>2012-07-07T08:09:45Z</time>
      </trkpt>
      <trkpt lat="58.6850354914" lon="16.0598905105">
        <ele>132.8</ele>
        <time>2012-07-07T08:09:47Z</time>
      </trkpt>
      <trkpt lat="58.6848525144" lon="16.0601951927">
        <ele>132.8</ele>
        <time>2012-07-07T08:09:56Z</time>
      </trkpt>
      <trkpt lat="58.6846385244" lon="16.0605885554">
        <ele>132.8</ele>
        <time>2012-07-07T08:10:07Z</time>
      </trkpt>
      <trkpt lat="58.6844262946" lon="16.0609442834">
        <ele>132.8</ele>
        <time>2012-07-07T08:10:18Z</time>
      </trkpt>
      <trkpt lat="58.6842100415" lon="16.0612439364">
        <ele>131.84</ele>
        <time>2012-07-07T08:10:28Z</time>
      </trkpt>
      <trkpt lat="58.6841398012" lon="16.0614318587">
        <ele>131.36</ele>
        <time>2012-07-07T08:10:33Z</time>
      </trkpt>
      <trkpt lat="58.6839837302" lon="16.0616113152">
        <ele>130.4</ele>
        <time>2012-07-07T08:10:41Z</time>
      </trkpt>
      <trkpt lat="58.6837936286" lon="16.0617551487">
        <ele>130.4</ele>
        <time>2012-07-07T08:10:50Z</time>
      </trkpt>
      <trkpt lat="58.6836559977" lon="16.0618681367">
        <ele>130.88</ele>
        <time>2012-07-07T08:10:56Z</time>
      </trkpt>
      <trkpt lat="58.6834218074" lon="16.0621702205">
        <ele>130.4</ele>
        <time>2012-07-07T08:11:07Z</time>
      </trkpt>
      <trkpt lat="58.6831996031" lon="16.0623825341">
        <ele>129.43</ele>
        <time>2012-07-07T08:11:16Z</time>
      </trkpt>
      <trkpt lat="58.6830877885" lon="16.0625615716">
        <ele>128.95</ele>
        <time>2012-07-07T08:11:22Z</time>
      </trkpt>
      <trkpt lat="58.6830191407" lon="16.062666513">
        <ele>128.95</ele>
        <time>2012-07-07T08:11:26Z</time>
      </trkpt>
      <trkpt lat="58.6828461383" lon="16.0624632519">
        <ele>128.95</ele>
        <time>2012-07-07T08:11:36Z</time>
      </trkpt>
      <trkpt lat="58.6828082521" lon="16.062298296">
        <ele>128.95</ele>
        <time>2012-07-07T08:11:40Z</time>
      </trkpt>
      <trkpt lat="58.6827722099" lon="16.0620480124">
        <ele>128.95</ele>
        <time>2012-07-07T08:11:46Z</time>
      </trkpt>
      <trkpt lat="58.6827402748" lon="16.0619330127">
        <ele>128.47</ele>
        <time>2012-07-07T08:11:49Z</time>
      </trkpt>
      <trkpt lat="58.6826588027" lon="16.0617859941">
        <ele>128.95</ele>
        <time>2012-07-07T08:11:53Z</time>
      </trkpt>
      <trkpt lat="58.6826287955" lon="16.0617123172">
        <ele>128.47</ele>
        <time>2012-07-07T08:11:55Z</time>
      </trkpt>
      <trkpt lat="58.6824707966" lon="16.0613850038">
        <ele>127.51</ele>
        <time>2012-07-07T08:12:04Z</time>
      </trkpt>
      <trkpt lat="58.6823442299" lon="16.0612089001">
        <ele>127.03</ele>
        <time>2012-07-07T08:12:11Z</time>
      </trkpt>
      <trkpt lat="58.6819825508" lon="16.0612303577">
        <ele>125.59</ele>
        <time>2012-07-07T08:12:24Z</time>
      </trkpt>
      <trkpt lat="58.6817530543" lon="16.0613816511">
        <ele>125.11</ele>
        <time>2012-07-07T08:12:32Z</time>
      </trkpt>
      <trkpt lat="58.6816413235" lon="16.0613968223">
        <ele>125.11</ele>
        <time>2012-07-07T08:12:37Z</time>
      </trkpt>
      <trkpt lat="58.6815029383" lon="16.0612504743">
        <ele>125.11</ele>
        <time>2012-07-07T08:12:45Z</time>
      </trkpt>
      <trkpt lat="58.6813452747" lon="16.0608751327">
        <ele>126.55</ele>
        <time>2012-07-07T08:12:54Z</time>
      </trkpt>
      <trkpt lat="58.6813296005" lon="16.0608295351">
        <ele>126.55</ele>
        <time>2012-07-07T08:12:55Z</time>
      </trkpt>
      <trkpt lat="58.681104295" lon="16.060656365">
        <ele>126.55</ele>
        <time>2012-07-07T08:13:04Z</time>
      </trkpt>
      <trkpt lat="58.6810476333" lon="16.0606037267">
        <ele>127.03</ele>
        <time>2012-07-07T08:13:07Z</time>
      </trkpt>
      <trkpt lat="58.6808406841" lon="16.0606050678">
        <ele>127.99</ele>
        <time>2012-07-07T08:13:15Z</time>
      </trkpt>
      <trkpt lat="58.6805417854" lon="16.0606101807">
        <ele>126.55</ele>
        <time>2012-07-07T08:13:26Z</time>
      </trkpt>
      <trkpt lat="58.6803245265" lon="16.0608255956">
        <ele>127.99</ele>
        <time>2012-07-07T08:13:36Z</time>
      </trkpt>
      <trkpt lat="58.6802077666" lon="16.0610077344">
        <ele>128.47</ele>
        <time>2012-07-07T08:13:43Z</time>
      </trkpt>
      <trkpt lat="58.6801138055" lon="16.0611617938">
        <ele>129.43</ele>
        <time>2012-07-07T08:13:49Z</time>
      </trkpt>
      <trkpt lat="58.6800047569" lon="16.0612645559">
        <ele>128.95</ele>
        <time>2012-07-07T08:13:55Z</time>
      </trkpt>
      <trkpt lat="58.6798604205" lon="16.0612811521">
        <ele>129.43</ele>
        <time>2012-07-07T08:14:01Z</time>
      </trkpt>
      <trkpt lat="58.6795456801" lon="16.0615948867">
        <ele>128.47</ele>
        <time>2012-07-07T08:14:12Z</time>
      </trkpt>
      <trkpt lat="58.6794137489" lon="16.0617213696">
        <ele>127.03</ele>
        <time>2012-07-07T08:14:19Z</time>
      </trkpt>
      <trkpt lat="58.6791364755" lon="16.0618099663">
        <ele>127.03</ele>
        <time>2012-07-07T08:14:29Z</time>
      </trkpt>
      <trkpt lat="58.6788529996" lon="16.0619367007">
        <ele>126.07</ele>
        <time>2012-07-07T08:14:41Z</time>
      </trkpt>
      <trkpt lat="58.678601291" lon="16.0619559791">
        <ele>126.55</ele>
        <time>2012-07-07T08:14:51Z</time>
      </trkpt>
      <trkpt lat="58.6783091817" lon="16.0621110443">
        <ele>126.07</ele>
        <time>2012-07-07T08:15:02Z</time>
      </trkpt>
      <trkpt lat="58.6781624984" lon="16.0621149838">
        <ele>127.03</ele>
        <time>2012-07-07T08:15:08Z</time>
      </trkpt>
      <trkpt lat="58.6779172439" lon="16.0619320907">
        <ele>127.51</ele>
        <time>2012-07-07T08:15:19Z</time>
      </trkpt>
      <trkpt lat="58.6778019927" lon="16.0619032569">
        <ele>127.99</ele>
        <time>2012-07-07T08:15:24Z</time>
      </trkpt>
      <trkpt lat="58.6774861626" lon="16.0618213657">
        <ele>127.03</ele>
        <time>2012-07-07T08:15:36Z</time>
      </trkpt>
      <trkpt lat="58.6772510502" lon="16.0616985708">
        <ele>127.99</ele>
        <time>2012-07-07T08:15:46Z</time>
      </trkpt>
      <trkpt lat="58.6770090647" lon="16.0615611915">
        <ele>128.47</ele>
        <time>2012-07-07T08:15:56Z</time>
      </trkpt>
      <trkpt lat="58.6767840106" lon="16.061422471">
        <ele>128.95</ele>
        <time>2012-07-07T08:16:06Z</time>
      </trkpt>
      <trkpt lat="58.6765456293" lon="16.0613373946">
        <ele>128.47</ele>
        <time>2012-07-07T08:16:15Z</time>
      </trkpt>
      <trkpt lat="58.6762789171" lon="16.0612078104">
        <ele>126.55</ele>
        <time>2012-07-07T08:16:25Z</time>
      </trkpt>
      <trkpt lat="58.6761339102" lon="16.0611183755">
        <ele>126.55</ele>
        <time>2012-07-07T08:16:31Z</time>
      </trkpt>
      <trkpt lat="58.6759253684" lon="16.0611520708">
        <ele>127.51</ele>
        <time>2012-07-07T08:16:40Z</time>
      </trkpt>
      <trkpt lat="58.675693525" lon="16.0612317827">
        <ele>127.51</ele>
        <time>2012-07-07T08:16:49Z</time>
      </trkpt>
      <trkpt lat="58.6756215245" lon="16.0611735284">
        <ele>127.51</ele>
        <time>2012-07-07T08:16:52Z</time>
      </trkpt>
      <trkpt lat="58.6755941994" lon="16.0607117694">
        <ele>128.47</ele>
        <time>2012-07-07T08:17:02Z</time>
      </trkpt>
      <trkpt lat="58.6756561417" lon="16.0603067558">
        <ele>127.99</ele>
        <time>2012-07-07T08:17:12Z</time>
      </trkpt>
      <trkpt lat="58.6756517831" lon="16.0599916801">
        <ele>127.51</ele>
        <time>2012-07-07T08:17:19Z</time>
      </trkpt>
      <trkpt lat="58.6755993962" lon="16.0597765166">
        <ele>127.51</ele>
        <time>2012-07-07T08:17:24Z</time>
      </trkpt>
      <trkpt lat="58.6755787767" lon="16.0596998222">
        <ele>127.99</ele>
        <time>2012-07-07T08:17:26Z</time>
      </trkpt>
      <trkpt lat="58.675478613" lon="16.0595134925">
        <ele>128.95</ele>
        <time>2012-07-07T08:17:32Z</time>
      </trkpt>
      <trkpt lat="58.675411474" lon="16.0594477784">
        <ele>128.95</ele>
        <time>2012-07-07T08:17:35Z</time>
      </trkpt>
      <trkpt lat="58.6752866674" lon="16.0593149252">
        <ele>129.43</ele>
        <time>2012-07-07T08:17:41Z</time>
      </trkpt>
      <trkpt lat="58.6752181873" lon="16.0592082236">
        <ele>128.47</ele>
        <time>2012-07-07T08:17:45Z</time>
      </trkpt>
      <trkpt lat="58.6751464382" lon="16.0588652361">
        <ele>127.51</ele>
        <time>2012-07-07T08:17:53Z</time>
      </trkpt>
      <trkpt lat="58.675143756" lon="16.0587747954">
        <ele>127.03</ele>
        <time>2012-07-07T08:17:55Z</time>
      </trkpt>
      <trkpt lat="58.6751549877" lon="16.0583736375">
        <ele>127.99</ele>
        <time>2012-07-07T08:18:03Z</time>
      </trkpt>
      <trkpt lat="58.6750963982" lon="16.0580367688">
        <ele>126.55</ele>
        <time>2012-07-07T08:18:10Z</time>
      </trkpt>
      <trkpt lat="58.6750363" lon="16.057929229">
        <ele>127.03</ele>
        <time>2012-07-07T08:18:13Z</time>
      </trkpt>
      <trkpt lat="58.6749682389" lon="16.057911627">
        <ele>126.55</ele>
        <time>2012-07-07T08:18:16Z</time>
      </trkpt>
      <trkpt lat="58.674900094" lon="16.0578683764">
        <ele>126.07</ele>
        <time>2012-07-07T08:18:19Z</time>
      </trkpt>
      <trkpt lat="58.674803786" lon="16.0577700567">
        <ele>125.59</ele>
        <time>2012-07-07T08:18:25Z</time>
      </trkpt>
      <trkpt lat="58.6745491438" lon="16.0575235449">
        <ele>125.11</ele>
        <time>2012-07-07T08:18:38Z</time>
      </trkpt>
      <trkpt lat="58.67430171" lon="16.0575889237">
        <ele>123.67</ele>
        <time>2012-07-07T08:18:49Z</time>
      </trkpt>
      <trkpt lat="58.6741077527" lon="16.0577687994">
        <ele>122.22</ele>
        <time>2012-07-07T08:18:58Z</time>
      </trkpt>
      <trkpt lat="58.6739091016" lon="16.0578123014">
        <ele>121.26</ele>
        <time>2012-07-07T08:19:06Z</time>
      </trkpt>
      <trkpt lat="58.6738023162" lon="16.0578671191">
        <ele>120.3</ele>
        <time>2012-07-07T08:19:10Z</time>
      </trkpt>
      <trkpt lat="58.67367642" lon="16.0577593278">
        <ele>118.38</ele>
        <time>2012-07-07T08:19:16Z</time>
      </trkpt>
      <trkpt lat="58.6736089457" lon="16.0576373711">
        <ele>117.9</ele>
        <time>2012-07-07T08:19:20Z</time>
      </trkpt>
      <trkpt lat="58.6735437345" lon="16.0575595871">
        <ele>117.42</ele>
        <time>2012-07-07T08:19:23Z</time>
      </trkpt>
      <trkpt lat="58.6733710673" lon="16.0574260633">
        <ele>115.98</ele>
        <time>2012-07-07T08:19:30Z</time>
      </trkpt>
      <trkpt lat="58.6732854042" lon="16.0572953895">
        <ele>116.46</ele>
        <time>2012-07-07T08:19:35Z</time>
      </trkpt>
      <trkpt lat="58.6731114797" lon="16.0571165197">
        <ele>115.98</ele>
        <time>2012-07-07T08:19:44Z</time>
      </trkpt>
      <trkpt lat="58.6729829852" lon="16.0568238236">
        <ele>115.5</ele>
        <time>2012-07-07T08:19:53Z</time>
      </trkpt>
      <trkpt lat="58.6729102302" lon="16.0567027889">
        <ele>115.01</ele>
        <time>2012-07-07T08:19:57Z</time>
      </trkpt>
      <trkpt lat="58.6728664767" lon="16.0566398408">
        <ele>115.01</ele>
        <time>2012-07-07T08:20:00Z</time>
      </trkpt>
      <trkpt lat="58.6728622857" lon="16.0565899685">
        <ele>115.01</ele>
        <time>2012-07-07T08:20:02Z</time>
      </trkpt>
      <trkpt lat="58.6728706677" lon="16.0564652458">
        <ele>115.01</ele>
        <time>2012-07-07T08:20:07Z</time>
      </trkpt>
      <trkpt lat="58.6728204601" lon="16.0561598931">
        <ele>115.5</ele>
        <time>2012-07-07T08:20:13Z</time>
      </trkpt>
      <trkpt lat="58.6728375591" lon="16.0556878243">
        <ele>117.42</ele>
        <time>2012-07-07T08:20:23Z</time>
      </trkpt>
      <trkpt lat="58.6730239727" lon="16.0551364627">
        <ele>118.86</ele>
        <time>2012-07-07T08:20:36Z</time>
      </trkpt>
      <trkpt lat="58.6731730867" lon="16.0546713509">
        <ele>119.82</ele>
        <time>2012-07-07T08:20:47Z</time>
      </trkpt>
      <trkpt lat="58.6732206121" lon="16.0544112604">
        <ele>120.78</ele>
        <time>2012-07-07T08:20:53Z</time>
      </trkpt>
      <trkpt lat="58.6732393876" lon="16.0540869646">
        <ele>121.74</ele>
        <time>2012-07-07T08:21:00Z</time>
      </trkpt>
      <trkpt lat="58.6732230429" lon="16.0536019038">
        <ele>123.67</ele>
        <time>2012-07-07T08:21:12Z</time>
      </trkpt>
      <trkpt lat="58.6732129008" lon="16.0534932744">
        <ele>124.63</ele>
        <time>2012-07-07T08:21:14Z</time>
      </trkpt>
      <trkpt lat="58.6731987353" lon="16.0533265583">
        <ele>125.11</ele>
        <time>2012-07-07T08:21:18Z</time>
      </trkpt>
      <trkpt lat="58.6732015014" lon="16.0531923641">
        <ele>125.59</ele>
        <time>2012-07-07T08:21:21Z</time>
      </trkpt>
      <trkpt lat="58.673241483" lon="16.0529466067">
        <ele>125.59</ele>
        <time>2012-07-07T08:21:27Z</time>
      </trkpt>
      <trkpt lat="58.6732383817" lon="16.0528188664">
        <ele>125.59</ele>
        <time>2012-07-07T08:21:30Z</time>
      </trkpt>
      <trkpt lat="58.6731793731" lon="16.0523727816">
        <ele>122.71</ele>
        <time>2012-07-07T08:21:40Z</time>
      </trkpt>
      <trkpt lat="58.6731264833" lon="16.052039098">
        <ele>121.26</ele>
        <time>2012-07-07T08:21:48Z</time>
      </trkpt>
      <trkpt lat="58.6730668042" lon="16.0519012157">
        <ele>120.78</ele>
        <time>2012-07-07T08:21:52Z</time>
      </trkpt>
      <trkpt lat="58.672836218" lon="16.051559737">
        <ele>119.34</ele>
        <time>2012-07-07T08:22:04Z</time>
      </trkpt>
      <trkpt lat="58.6727647204" lon="16.0514977109">
        <ele>118.86</ele>
        <time>2012-07-07T08:22:07Z</time>
      </trkpt>
      <trkpt lat="58.6727404967" lon="16.0514379479">
        <ele>118.38</ele>
        <time>2012-07-07T08:22:09Z</time>
      </trkpt>
      <trkpt lat="58.6725735292" lon="16.0512274783">
        <ele>118.86</ele>
        <time>2012-07-07T08:22:19Z</time>
      </trkpt>
      <trkpt lat="58.6725928076" lon="16.0510325152">
        <ele>119.34</ele>
        <time>2012-07-07T08:22:24Z</time>
      </trkpt>
      <trkpt lat="58.6725920532" lon="16.0508644581">
        <ele>119.34</ele>
        <time>2012-07-07T08:22:28Z</time>
      </trkpt>
      <trkpt lat="58.6725591961" lon="16.0503027868">
        <ele>120.3</ele>
        <time>2012-07-07T08:22:39Z</time>
      </trkpt>
      <trkpt lat="58.6725182924" lon="16.0501448717">
        <ele>120.3</ele>
        <time>2012-07-07T08:22:43Z</time>
      </trkpt>
      <trkpt lat="58.6724509019" lon="16.0498645809">
        <ele>120.3</ele>
        <time>2012-07-07T08:22:49Z</time>
      </trkpt>
      <trkpt lat="58.6724236608" lon="16.0497158021">
        <ele>119.34</ele>
        <time>2012-07-07T08:22:52Z</time>
      </trkpt>
      <trkpt lat="58.6723881215" lon="16.049555121">
        <ele>118.86</ele>
        <time>2012-07-07T08:22:56Z</time>
      </trkpt>
      <trkpt lat="58.6723365728" lon="16.0492833797">
        <ele>118.86</ele>
        <time>2012-07-07T08:23:02Z</time>
      </trkpt>
      <trkpt lat="58.6722479761" lon="16.0488172621">
        <ele>117.42</ele>
        <time>2012-07-07T08:23:12Z</time>
      </trkpt>
      <trkpt lat="58.672101628" lon="16.0483679082">
        <ele>117.42</ele>
        <time>2012-07-07T08:23:24Z</time>
      </trkpt>
      <trkpt lat="58.6720807571" lon="16.0482799821">
        <ele>117.9</ele>
        <time>2012-07-07T08:23:27Z</time>
      </trkpt>
      <trkpt lat="58.6720123608" lon="16.0480113421">
        <ele>118.86</ele>
        <time>2012-07-07T08:23:33Z</time>
      </trkpt>
      <trkpt lat="58.6719830241" lon="16.0478037223">
        <ele>119.82</ele>
        <time>2012-07-07T08:23:38Z</time>
      </trkpt>
      <trkpt lat="58.6719779111" lon="16.0477360804">
        <ele>120.3</ele>
        <time>2012-07-07T08:23:40Z</time>
      </trkpt>
      <trkpt lat="58.6718889792" lon="16.0474531911">
        <ele>119.82</ele>
        <time>2012-07-07T08:23:46Z</time>
      </trkpt>
      <trkpt lat="58.6718407832" lon="16.0471069347">
        <ele>120.3</ele>
        <time>2012-07-07T08:23:56Z</time>
      </trkpt>
      <trkpt lat="58.6717865523" lon="16.0468853172">
        <ele>119.34</ele>
        <time>2012-07-07T08:24:01Z</time>
      </trkpt>
      <trkpt lat="58.6717861332" lon="16.0463606101">
        <ele>116.46</ele>
        <time>2012-07-07T08:24:12Z</time>
      </trkpt>
      <trkpt lat="58.6716544535" lon="16.0460871924">
        <ele>116.46</ele>
        <time>2012-07-07T08:24:21Z</time>
      </trkpt>
      <trkpt lat="58.6714332551" lon="16.0459693428">
        <ele>119.34</ele>
        <time>2012-07-07T08:24:31Z</time>
      </trkpt>
      <trkpt lat="58.671186408" lon="16.0457433667">
        <ele>118.86</ele>
        <time>2012-07-07T08:24:43Z</time>
      </trkpt>
      <trkpt lat="58.6709682271" lon="16.0456228349">
        <ele>116.94</ele>
        <time>2012-07-07T08:24:53Z</time>
      </trkpt>
      <trkpt lat="58.670892287" lon="16.0456077475">
        <ele>116.94</ele>
        <time>2012-07-07T08:24:57Z</time>
      </trkpt>
      <trkpt lat="58.6707653012" lon="16.0455907322">
        <ele>116.94</ele>
        <time>2012-07-07T08:25:03Z</time>
      </trkpt>
      <trkpt lat="58.6706981622" lon="16.0455372557">
        <ele>116.46</ele>
        <time>2012-07-07T08:25:06Z</time>
      </trkpt>
      <trkpt lat="58.6705693323" lon="16.0453902371">
        <ele>116.46</ele>
        <time>2012-07-07T08:25:13Z</time>
      </trkpt>
      <trkpt lat="58.6704631336" lon="16.0451382771">
        <ele>117.42</ele>
        <time>2012-07-07T08:25:21Z</time>
      </trkpt>
      <trkpt lat="58.6703050509" lon="16.0449883249">
        <ele>118.38</ele>
        <time>2012-07-07T08:25:29Z</time>
      </trkpt>
      <trkpt lat="58.6700767279" lon="16.0447530448">
        <ele>115.98</ele>
        <time>2012-07-07T08:25:43Z</time>
      </trkpt>
      <trkpt lat="58.6699403543" lon="16.0445379652">
        <ele>112.61</ele>
        <time>2012-07-07T08:25:52Z</time>
      </trkpt>
      <trkpt lat="58.6698634084" lon="16.0444186069">
        <ele>110.69</ele>
        <time>2012-07-07T08:25:57Z</time>
      </trkpt>
      <trkpt lat="58.6698235106" lon="16.0443005059">
        <ele>110.21</ele>
        <time>2012-07-07T08:26:00Z</time>
      </trkpt>
      <trkpt lat="58.6697874684" lon="16.0442040302">
        <ele>109.73</ele>
        <time>2012-07-07T08:26:03Z</time>
      </trkpt>
      <trkpt lat="58.6696768273" lon="16.044034129">
        <ele>109.25</ele>
        <time>2012-07-07T08:26:08Z</time>
      </trkpt>
      <trkpt lat="58.6695060879" lon="16.0438622162">
        <ele>108.29</ele>
        <time>2012-07-07T08:26:15Z</time>
      </trkpt>
      <trkpt lat="58.6694247834" lon="16.0437514074">
        <ele>107.81</ele>
        <time>2012-07-07T08:26:19Z</time>
      </trkpt>
      <trkpt lat="58.6691568978" lon="16.0434618965">
        <ele>109.73</ele>
        <time>2012-07-07T08:26:32Z</time>
      </trkpt>
      <trkpt lat="58.6690341029" lon="16.043333821">
        <ele>109.25</ele>
        <time>2012-07-07T08:26:38Z</time>
      </trkpt>
      <trkpt lat="58.6688857432" lon="16.042912798">
        <ele>106.36</ele>
        <time>2012-07-07T08:26:50Z</time>
      </trkpt>
      <trkpt lat="58.6688286625" lon="16.0427143984">
        <ele>107.81</ele>
        <time>2012-07-07T08:26:55Z</time>
      </trkpt>
      <trkpt lat="58.6687384732" lon="16.042536702">
        <ele>107.81</ele>
        <time>2012-07-07T08:27:00Z</time>
      </trkpt>
      <trkpt lat="58.6687215418" lon="16.0425025038">
        <ele>107.81</ele>
        <time>2012-07-07T08:27:01Z</time>
      </trkpt>
      <trkpt lat="58.6685735174" lon="16.0422121547">
        <ele>106.84</ele>
        <time>2012-07-07T08:27:11Z</time>
      </trkpt>
      <trkpt lat="58.6685531493" lon="16.0421743523">
        <ele>106.84</ele>
        <time>2012-07-07T08:27:12Z</time>
      </trkpt>
      <trkpt lat="58.6685114913" lon="16.042111069">
        <ele>105.88</ele>
        <time>2012-07-07T08:27:14Z</time>
      </trkpt>
      <trkpt lat="58.6684694141" lon="16.0420310218">
        <ele>105.4</ele>
        <time>2012-07-07T08:27:16Z</time>
      </trkpt>
      <trkpt lat="58.6684025265" lon="16.0419119988">
        <ele>105.88</ele>
        <time>2012-07-07T08:27:19Z</time>
      </trkpt>
      <trkpt lat="58.6682722718" lon="16.0417688359">
        <ele>104.44</ele>
        <time>2012-07-07T08:27:24Z</time>
      </trkpt>
      <trkpt lat="58.6681187153" lon="16.0415427759">
        <ele>104.44</ele>
        <time>2012-07-07T08:27:32Z</time>
      </trkpt>
      <trkpt lat="58.6680563539" lon="16.0413195658">
        <ele>103</ele>
        <time>2012-07-07T08:27:38Z</time>
      </trkpt>
      <trkpt lat="58.668026682" lon="16.0412510019">
        <ele>102.52</ele>
        <time>2012-07-07T08:27:40Z</time>
      </trkpt>
      <trkpt lat="58.6679819226" lon="16.0409541987">
        <ele>101.08</ele>
        <time>2012-07-07T08:27:48Z</time>
      </trkpt>
      <trkpt lat="58.6679844372" lon="16.0408505984">
        <ele>102.52</ele>
        <time>2012-07-07T08:27:58Z</time>
      </trkpt>
      <trkpt lat="58.6678499077" lon="16.0407524463">
        <ele>102.04</ele>
        <time>2012-07-07T08:28:04Z</time>
      </trkpt>
      <trkpt lat="58.6677874625" lon="16.0403189342">
        <ele>101.56</ele>
        <time>2012-07-07T08:28:14Z</time>
      </trkpt>
      <trkpt lat="58.6677374225" lon="16.0400738474">
        <ele>100.6</ele>
        <time>2012-07-07T08:28:19Z</time>
      </trkpt>
      <trkpt lat="58.6675828602" lon="16.0396513157">
        <ele>98.19</ele>
        <time>2012-07-07T08:28:29Z</time>
      </trkpt>
      <trkpt lat="58.6675483268" lon="16.0395472124">
        <ele>96.75</ele>
        <time>2012-07-07T08:28:32Z</time>
      </trkpt>
      <trkpt lat="58.6675263662" lon="16.0394093301">
        <ele>95.31</ele>
        <time>2012-07-07T08:28:35Z</time>
      </trkpt>
      <trkpt lat="58.667525528" lon="16.0392721184">
        <ele>94.83</ele>
        <time>2012-07-07T08:28:38Z</time>
      </trkpt>
      <trkpt lat="58.6674905755" lon="16.0391298775">
        <ele>92.42</ele>
        <time>2012-07-07T08:28:42Z</time>
      </trkpt>
      <trkpt lat="58.6673619132" lon="16.0387987923">
        <ele>89.06</ele>
        <time>2012-07-07T08:28:50Z</time>
      </trkpt>
      <trkpt lat="58.6671743263" lon="16.0386535339">
        <ele>86.18</ele>
        <time>2012-07-07T08:28:56Z</time>
      </trkpt>
      <trkpt lat="58.6671603285" lon="16.038653031">
        <ele>85.69</ele>
        <time>2012-07-07T08:28:57Z</time>
      </trkpt>
      <trkpt lat="58.6671383679" lon="16.0386435594">
        <ele>85.69</ele>
        <time>2012-07-07T08:28:58Z</time>
      </trkpt>
      <trkpt lat="58.6671107914" lon="16.0385416355">
        <ele>82.81</ele>
        <time>2012-07-07T08:29:04Z</time>
      </trkpt>
      <trkpt lat="58.6670829635" lon="16.0384720657">
        <ele>83.29</ele>
        <time>2012-07-07T08:29:07Z</time>
      </trkpt>
      <trkpt lat="58.6669068597" lon="16.0377377272">
        <ele>82.81</ele>
        <time>2012-07-07T08:29:18Z</time>
      </trkpt>
      <trkpt lat="58.6668689735" lon="16.0373386648">
        <ele>84.25</ele>
        <time>2012-07-07T08:29:28Z</time>
      </trkpt>
      <trkpt lat="58.6668705661" lon="16.0371567775">
        <ele>84.73</ele>
        <time>2012-07-07T08:29:32Z</time>
      </trkpt>
      <trkpt lat="58.6668703984" lon="16.0370570328">
        <ele>84.73</ele>
        <time>2012-07-07T08:29:34Z</time>
      </trkpt>
      <trkpt lat="58.6669068597" lon="16.0367372632">
        <ele>86.18</ele>
        <time>2012-07-07T08:29:41Z</time>
      </trkpt>
      <trkpt lat="58.6669804528" lon="16.0365023185">
        <ele>87.62</ele>
        <time>2012-07-07T08:29:47Z</time>
      </trkpt>
      <trkpt lat="58.6670211051" lon="16.0363404639">
        <ele>88.58</ele>
        <time>2012-07-07T08:29:51Z</time>
      </trkpt>
      <trkpt lat="58.6671020743" lon="16.0357039422">
        <ele>90.5</ele>
        <time>2012-07-07T08:30:04Z</time>
      </trkpt>
      <trkpt lat="58.6670811195" lon="16.0354173649">
        <ele>90.5</ele>
        <time>2012-07-07T08:30:10Z</time>
      </trkpt>
      <trkpt lat="58.6670306604" lon="16.0349145345">
        <ele>90.02</ele>
        <time>2012-07-07T08:30:20Z</time>
      </trkpt>
      <trkpt lat="58.6669948697" lon="16.0345277935">
        <ele>90.5</ele>
        <time>2012-07-07T08:30:28Z</time>
      </trkpt>
      <trkpt lat="58.6669631023" lon="16.0343628377">
        <ele>90.5</ele>
        <time>2012-07-07T08:30:32Z</time>
      </trkpt>
      <trkpt lat="58.6669375375" lon="16.0342411324">
        <ele>90.5</ele>
        <time>2012-07-07T08:30:35Z</time>
      </trkpt>
      <trkpt lat="58.6668379605" lon="16.0340700578">
        <ele>90.5</ele>
        <time>2012-07-07T08:30:39Z</time>
      </trkpt>
      <trkpt lat="58.6667118128" lon="16.0339125618">
        <ele>90.5</ele>
        <time>2012-07-07T08:30:45Z</time>
      </trkpt>
      <trkpt lat="58.6664072145" lon="16.0338603426">
        <ele>89.06</ele>
        <time>2012-07-07T08:30:56Z</time>
      </trkpt>
      <trkpt lat="58.666255502" lon="16.0338790342">
        <ele>88.58</ele>
        <time>2012-07-07T08:31:01Z</time>
      </trkpt>
      <trkpt lat="58.6659861915" lon="16.0336316004">
        <ele>86.66</ele>
        <time>2012-07-07T08:31:12Z</time>
      </trkpt>
      <trkpt lat="58.6659555975" lon="16.0336129088">
        <ele>86.66</ele>
        <time>2012-07-07T08:31:13Z</time>
      </trkpt>
      <trkpt lat="58.665582519" lon="16.0336025991">
        <ele>85.21</ele>
        <time>2012-07-07T08:31:25Z</time>
      </trkpt>
      <trkpt lat="58.6653005518" lon="16.0336032696">
        <ele>83.77</ele>
        <time>2012-07-07T08:31:34Z</time>
      </trkpt>
      <trkpt lat="58.6649905052" lon="16.0336916149">
        <ele>84.25</ele>
        <time>2012-07-07T08:31:45Z</time>
      </trkpt>
      <trkpt lat="58.664690936" lon="16.0338494461">
        <ele>85.69</ele>
        <time>2012-07-07T08:31:55Z</time>
      </trkpt>
      <trkpt lat="58.6643914506" lon="16.0340996459">
        <ele>87.62</ele>
        <time>2012-07-07T08:32:07Z</time>
      </trkpt>
      <trkpt lat="58.6643279158" lon="16.0341439024">
        <ele>88.1</ele>
        <time>2012-07-07T08:32:10Z</time>
      </trkpt>
      <trkpt lat="58.6642321944" lon="16.0342148971">
        <ele>88.58</ele>
        <time>2012-07-07T08:32:14Z</time>
      </trkpt>
      <trkpt lat="58.6640737765" lon="16.0343008954">
        <ele>89.06</ele>
        <time>2012-07-07T08:32:22Z</time>
      </trkpt>
      <trkpt lat="58.6638149433" lon="16.0345048271">
        <ele>88.1</ele>
        <time>2012-07-07T08:32:31Z</time>
      </trkpt>
      <trkpt lat="58.6636217404" lon="16.0347012151">
        <ele>88.1</ele>
        <time>2012-07-07T08:32:40Z</time>
      </trkpt>
      <trkpt lat="58.6634800024" lon="16.0348588787">
        <ele>87.62</ele>
        <time>2012-07-07T08:32:45Z</time>
      </trkpt>
      <trkpt lat="58.6633913219" lon="16.0349592939">
        <ele>87.62</ele>
        <time>2012-07-07T08:32:49Z</time>
      </trkpt>
      <trkpt lat="58.6632086802" lon="16.0350793228">
        <ele>87.62</ele>
        <time>2012-07-07T08:32:55Z</time>
      </trkpt>
      <trkpt lat="58.6630048323" lon="16.0350866988">
        <ele>89.06</ele>
        <time>2012-07-07T08:33:04Z</time>
      </trkpt>
      <trkpt lat="58.6629780941" lon="16.0350664146">
        <ele>88.58</ele>
        <time>2012-07-07T08:33:05Z</time>
      </trkpt>
      <trkpt lat="58.6628843006" lon="16.035051411">
        <ele>88.58</ele>
        <time>2012-07-07T08:33:09Z</time>
      </trkpt>
      <trkpt lat="58.6626198515" lon="16.0349687655">
        <ele>88.1</ele>
        <time>2012-07-07T08:33:18Z</time>
      </trkpt>
      <trkpt lat="58.6625934485" lon="16.0349532589">
        <ele>88.1</ele>
        <time>2012-07-07T08:33:19Z</time>
      </trkpt>
      <trkpt lat="58.6623949651" lon="16.0346995387">
        <ele>88.1</ele>
        <time>2012-07-07T08:33:28Z</time>
      </trkpt>
      <trkpt lat="58.6623625271" lon="16.0344996303">
        <ele>88.58</ele>
        <time>2012-07-07T08:33:32Z</time>
      </trkpt>
      <trkpt lat="58.6624216195" lon="16.0340477619">
        <ele>88.58</ele>
        <time>2012-07-07T08:33:41Z</time>
      </trkpt>
      <trkpt lat="58.6624619365" lon="16.0338535532">
        <ele>89.06</ele>
        <time>2012-07-07T08:33:45Z</time>
      </trkpt>
      <trkpt lat="58.6625580769" lon="16.0333026107">
        <ele>90.98</ele>
        <time>2012-07-07T08:33:57Z</time>
      </trkpt>
      <trkpt lat="58.6626948696" lon="16.0329676699">
        <ele>91.94</ele>
        <time>2012-07-07T08:34:06Z</time>
      </trkpt>
      <trkpt lat="58.6627085321" lon="16.0327618942">
        <ele>92.42</ele>
        <time>2012-07-07T08:34:10Z</time>
      </trkpt>
      <trkpt lat="58.6626924388" lon="16.0326788295">
        <ele>92.42</ele>
        <time>2012-07-07T08:34:12Z</time>
      </trkpt>
      <trkpt lat="58.6626873259" lon="16.0326108523">
        <ele>92.42</ele>
        <time>2012-07-07T08:34:13Z</time>
      </trkpt>
      <trkpt lat="58.6626657844" lon="16.0324862972">
        <ele>93.87</ele>
        <time>2012-07-07T08:34:17Z</time>
      </trkpt>
      <trkpt lat="58.6626428179" lon="16.0321856383">
        <ele>95.79</ele>
        <time>2012-07-07T08:34:23Z</time>
      </trkpt>
      <trkpt lat="58.6626309156" lon="16.0319637693">
        <ele>97.23</ele>
        <time>2012-07-07T08:34:28Z</time>
      </trkpt>
      <trkpt lat="58.6626151577" lon="16.0318714008">
        <ele>98.19</ele>
        <time>2012-07-07T08:34:30Z</time>
      </trkpt>
      <trkpt lat="58.662627982" lon="16.0314751044">
        <ele>99.63</ele>
        <time>2012-07-07T08:34:39Z</time>
      </trkpt>
      <trkpt lat="58.6626292393" lon="16.0314436723">
        <ele>100.11</ele>
        <time>2012-07-07T08:34:40Z</time>
      </trkpt>
      <trkpt lat="58.6626695562" lon="16.0312834103">
        <ele>100.11</ele>
        <time>2012-07-07T08:34:44Z</time>
      </trkpt>
      <trkpt lat="58.6627073586" lon="16.0311541613">
        <ele>100.6</ele>
        <time>2012-07-07T08:34:48Z</time>
      </trkpt>
      <trkpt lat="58.6627636012" lon="16.0308261774">
        <ele>101.08</ele>
        <time>2012-07-07T08:34:56Z</time>
      </trkpt>
      <trkpt lat="58.6625454202" lon="16.0304690246">
        <ele>102.04</ele>
        <time>2012-07-07T08:35:08Z</time>
      </trkpt>
      <trkpt lat="58.6625255551" lon="16.0304617323">
        <ele>101.56</ele>
        <time>2012-07-07T08:35:09Z</time>
      </trkpt>
      <trkpt lat="58.6625046004" lon="16.0304317251">
        <ele>102.04</ele>
        <time>2012-07-07T08:35:10Z</time>
      </trkpt>
      <trkpt lat="58.6624709889" lon="16.0300200898">
        <ele>101.56</ele>
        <time>2012-07-07T08:35:19Z</time>
      </trkpt>
      <trkpt lat="58.6625254713" lon="16.0296229552">
        <ele>102.52</ele>
        <time>2012-07-07T08:35:28Z</time>
      </trkpt>
      <trkpt lat="58.6625511199" lon="16.0294893477">
        <ele>102.52</ele>
        <time>2012-07-07T08:35:32Z</time>
      </trkpt>
      <trkpt lat="58.6625465937" lon="16.0293042753">
        <ele>103</ele>
        <time>2012-07-07T08:35:36Z</time>
      </trkpt>
      <trkpt lat="58.6624828912" lon="16.0289388243">
        <ele>104.92</ele>
        <time>2012-07-07T08:35:46Z</time>
      </trkpt>
      <trkpt lat="58.6624247208" lon="16.0288503952">
        <ele>106.84</ele>
        <time>2012-07-07T08:35:50Z</time>
      </trkpt>
      <trkpt lat="58.6624097172" lon="16.0288292728">
        <ele>107.32</ele>
        <time>2012-07-07T08:35:51Z</time>
      </trkpt>
      <trkpt lat="58.6623491161" lon="16.0287529975">
        <ele>109.73</ele>
        <time>2012-07-07T08:35:56Z</time>
      </trkpt>
      <trkpt lat="58.662225483" lon="16.0285829287">
        <ele>113.09</ele>
        <time>2012-07-07T08:36:02Z</time>
      </trkpt>
      <trkpt lat="58.6620563362" lon="16.0285287816">
        <ele>115.98</ele>
        <time>2012-07-07T08:36:10Z</time>
      </trkpt>
      <trkpt lat="58.6620400753" lon="16.028519813">
        <ele>116.46</ele>
        <time>2012-07-07T08:36:11Z</time>
      </trkpt>
      <trkpt lat="58.6619649734" lon="16.0284649115">
        <ele>116.46</ele>
        <time>2012-07-07T08:36:16Z</time>
      </trkpt>
      <trkpt lat="58.6618675757" lon="16.0283069964">
        <ele>116.94</ele>
        <time>2012-07-07T08:36:23Z</time>
      </trkpt>
      <trkpt lat="58.6617837567" lon="16.0283592157">
        <ele>116.94</ele>
        <time>2012-07-07T08:36:27Z</time>
      </trkpt>
      <trkpt lat="58.6616620515" lon="16.0287400894">
        <ele>117.9</ele>
        <time>2012-07-07T08:36:39Z</time>
      </trkpt>
      <trkpt lat="58.6616246682" lon="16.0288689192">
        <ele>118.86</ele>
        <time>2012-07-07T08:36:42Z</time>
      </trkpt>
      <trkpt lat="58.6615521647" lon="16.0290269181">
        <ele>118.86</ele>
        <time>2012-07-07T08:36:47Z</time>
      </trkpt>
      <trkpt lat="58.6615105066" lon="16.0291787982">
        <ele>119.34</ele>
        <time>2012-07-07T08:36:51Z</time>
      </trkpt>
      <trkpt lat="58.661432052" lon="16.029368313">
        <ele>120.78</ele>
        <time>2012-07-07T08:36:56Z</time>
      </trkpt>
      <trkpt lat="58.661377402" lon="16.0295046028">
        <ele>121.74</ele>
        <time>2012-07-07T08:37:00Z</time>
      </trkpt>
      <trkpt lat="58.6613654997" lon="16.0295416508">
        <ele>122.22</ele>
        <time>2012-07-07T08:37:01Z</time>
      </trkpt>
      <trkpt lat="58.6611817684" lon="16.0299469996">
        <ele>122.71</ele>
        <time>2012-07-07T08:37:13Z</time>
      </trkpt>
      <trkpt lat="58.661095351" lon="16.0304052383">
        <ele>122.71</ele>
        <time>2012-07-07T08:37:22Z</time>
      </trkpt>
      <trkpt lat="58.6609836202" lon="16.0307185538">
        <ele>125.11</ele>
        <time>2012-07-07T08:37:31Z</time>
      </trkpt>
      <trkpt lat="58.6608905811" lon="16.0309065599">
        <ele>125.59</ele>
        <time>2012-07-07T08:37:36Z</time>
      </trkpt>
      <trkpt lat="58.6607052572" lon="16.0311096534">
        <ele>125.59</ele>
        <time>2012-07-07T08:37:46Z</time>
      </trkpt>
      <trkpt lat="58.6604740843" lon="16.0312886909">
        <ele>125.11</ele>
        <time>2012-07-07T08:37:55Z</time>
      </trkpt>
      <trkpt lat="58.6602082103" lon="16.0314119887">
        <ele>123.19</ele>
        <time>2012-07-07T08:38:05Z</time>
      </trkpt>
      <trkpt lat="58.6601533089" lon="16.0313989967">
        <ele>123.19</ele>
        <time>2012-07-07T08:38:07Z</time>
      </trkpt>
      <trkpt lat="58.6601015925" lon="16.031257594">
        <ele>123.19</ele>
        <time>2012-07-07T08:38:11Z</time>
      </trkpt>
      <trkpt lat="58.6600853316" lon="16.0310263373">
        <ele>123.19</ele>
        <time>2012-07-07T08:38:16Z</time>
      </trkpt>
      <trkpt lat="58.660034202" lon="16.0306716152">
        <ele>121.74</ele>
        <time>2012-07-07T08:38:23Z</time>
      </trkpt>
      <trkpt lat="58.6600119062" lon="16.0303307232">
        <ele>121.74</ele>
        <time>2012-07-07T08:38:31Z</time>
      </trkpt>
      <trkpt lat="58.6599691585" lon="16.0300142225">
        <ele>121.26</ele>
        <time>2012-07-07T08:38:37Z</time>
      </trkpt>
      <trkpt lat="58.6598658096" lon="16.029571658">
        <ele>120.78</ele>
        <time>2012-07-07T08:38:46Z</time>
      </trkpt>
      <trkpt lat="58.6598187871" lon="16.0294591729">
        <ele>120.78</ele>
        <time>2012-07-07T08:38:48Z</time>
      </trkpt>
      <trkpt lat="58.6595402565" lon="16.029110821">
        <ele>119.82</ele>
        <time>2012-07-07T08:39:00Z</time>
      </trkpt>
      <trkpt lat="58.6594876181" lon="16.0290661454">
        <ele>119.82</ele>
        <time>2012-07-07T08:39:02Z</time>
      </trkpt>
      <trkpt lat="58.6593488976" lon="16.028929688">
        <ele>119.34</ele>
        <time>2012-07-07T08:39:09Z</time>
      </trkpt>
      <trkpt lat="58.6590014677" lon="16.0287441127">
        <ele>118.38</ele>
        <time>2012-07-07T08:39:22Z</time>
      </trkpt>
      <trkpt lat="58.6588413734" lon="16.0286163725">
        <ele>118.38</ele>
        <time>2012-07-07T08:39:31Z</time>
      </trkpt>
      <trkpt lat="58.658465948" lon="16.0284233373">
        <ele>116.46</ele>
        <time>2012-07-07T08:39:42Z</time>
      </trkpt>
      <trkpt lat="58.6582791153" lon="16.0281463154">
        <ele>115.5</ele>
        <time>2012-07-07T08:39:52Z</time>
      </trkpt>
      <trkpt lat="58.6582649499" lon="16.0280534439">
        <ele>115.5</ele>
        <time>2012-07-07T08:39:54Z</time>
      </trkpt>
      <trkpt lat="58.6582572386" lon="16.0278951935">
        <ele>115.01</ele>
        <time>2012-07-07T08:39:58Z</time>
      </trkpt>
      <trkpt lat="58.6582981423" lon="16.0275362805">
        <ele>116.46</ele>
        <time>2012-07-07T08:40:06Z</time>
      </trkpt>
      <trkpt lat="58.6583884154" lon="16.0270906985">
        <ele>116.94</ele>
        <time>2012-07-07T08:40:16Z</time>
      </trkpt>
      <trkpt lat="58.6584463343" lon="16.0267369822">
        <ele>117.9</ele>
        <time>2012-07-07T08:40:25Z</time>
      </trkpt>
      <trkpt lat="58.6585427262" lon="16.0265356489">
        <ele>118.86</ele>
        <time>2012-07-07T08:40:31Z</time>
      </trkpt>
      <trkpt lat="58.658566447" lon="16.0259179026">
        <ele>118.86</ele>
        <time>2012-07-07T08:40:42Z</time>
      </trkpt>
      <trkpt lat="58.6585406307" lon="16.0257042479">
        <ele>118.86</ele>
        <time>2012-07-07T08:40:46Z</time>
      </trkpt>
      <trkpt lat="58.6586195044" lon="16.0251185205">
        <ele>119.82</ele>
        <time>2012-07-07T08:40:57Z</time>
      </trkpt>
      <trkpt lat="58.6588273756" lon="16.024738485">
        <ele>120.78</ele>
        <time>2012-07-07T08:41:08Z</time>
      </trkpt>
      <trkpt lat="58.6590466462" lon="16.0243673343">
        <ele>120.3</ele>
        <time>2012-07-07T08:41:18Z</time>
      </trkpt>
      <trkpt lat="58.6590849515" lon="16.0242840182">
        <ele>121.26</ele>
        <time>2012-07-07T08:41:22Z</time>
      </trkpt>
      <trkpt lat="58.6591020506" lon="16.0242220759">
        <ele>120.3</ele>
        <time>2012-07-07T08:41:23Z</time>
      </trkpt>
      <trkpt lat="58.6593026295" lon="16.0236212611">
        <ele>120.3</ele>
        <time>2012-07-07T08:41:37Z</time>
      </trkpt>
      <trkpt lat="58.6594141088" lon="16.0233584046">
        <ele>120.78</ele>
        <time>2012-07-07T08:41:44Z</time>
      </trkpt>
      <trkpt lat="58.6595623009" lon="16.0227337014">
        <ele>120.78</ele>
        <time>2012-07-07T08:41:57Z</time>
      </trkpt>
      <trkpt lat="58.6596596148" lon="16.0225582682">
        <ele>120.78</ele>
        <time>2012-07-07T08:42:04Z</time>
      </trkpt>
      <trkpt lat="58.6596955732" lon="16.0225490481">
        <ele>120.78</ele>
        <time>2012-07-07T08:42:06Z</time>
      </trkpt>
      <trkpt lat="58.6598048732" lon="16.0224354733">
        <ele>120.3</ele>
        <time>2012-07-07T08:42:13Z</time>
      </trkpt>
      <trkpt lat="58.6598275881" lon="16.0223386623">
        <ele>120.78</ele>
        <time>2012-07-07T08:42:18Z</time>
      </trkpt>
      <trkpt lat="58.6599025223" lon="16.0222533345">
        <ele>120.78</ele>
        <time>2012-07-07T08:42:23Z</time>
      </trkpt>
      <trkpt lat="58.6601635348" lon="16.0219941661">
        <ele>120.78</ele>
        <time>2012-07-07T08:42:30Z</time>
      </trkpt>
      <trkpt lat="58.6603198573" lon="16.0218075011">
        <ele>120.3</ele>
        <time>2012-07-07T08:42:36Z</time>
      </trkpt>
      <trkpt lat="58.660456147" lon="16.0215376876">
        <ele>119.34</ele>
        <time>2012-07-07T08:42:44Z</time>
      </trkpt>
      <trkpt lat="58.660649769" lon="16.0210228711">
        <ele>117.42</ele>
        <time>2012-07-07T08:42:56Z</time>
      </trkpt>
      <trkpt lat="58.6607941054" lon="16.0205173586">
        <ele>116.46</ele>
        <time>2012-07-07T08:43:07Z</time>
      </trkpt>
      <trkpt lat="58.660816988" lon="16.0204802267">
        <ele>115.98</ele>
        <time>2012-07-07T08:43:08Z</time>
      </trkpt>
      <trkpt lat="58.6608543713" lon="16.0202989262">
        <ele>115.01</ele>
        <time>2012-07-07T08:43:11Z</time>
      </trkpt>
      <trkpt lat="58.6609109491" lon="16.0199234169">
        <ele>114.05</ele>
        <time>2012-07-07T08:43:18Z</time>
      </trkpt>
      <trkpt lat="58.6609945167" lon="16.0194383562">
        <ele>112.61</ele>
        <time>2012-07-07T08:43:27Z</time>
      </trkpt>
      <trkpt lat="58.6610312294" lon="16.0190782696">
        <ele>112.61</ele>
        <time>2012-07-07T08:43:35Z</time>
      </trkpt>
      <trkpt lat="58.6611012183" lon="16.018709885">
        <ele>112.61</ele>
        <time>2012-07-07T08:43:44Z</time>
      </trkpt>
      <trkpt lat="58.6611093488" lon="16.0186856613">
        <ele>112.61</ele>
        <time>2012-07-07T08:43:45Z</time>
      </trkpt>
      <trkpt lat="58.6613377556" lon="16.0187109746">
        <ele>112.61</ele>
        <time>2012-07-07T08:43:57Z</time>
      </trkpt>
      <trkpt lat="58.6617233232" lon="16.0186300054">
        <ele>112.61</ele>
        <time>2012-07-07T08:44:10Z</time>
      </trkpt>
      <trkpt lat="58.6619933043" lon="16.0186326876">
        <ele>111.65</ele>
        <time>2012-07-07T08:44:19Z</time>
      </trkpt>
      <trkpt lat="58.6622621119" lon="16.0184296779">
        <ele>111.65</ele>
        <time>2012-07-07T08:44:31Z</time>
      </trkpt>
      <trkpt lat="58.6623279937" lon="16.0183363035">
        <ele>110.69</ele>
        <time>2012-07-07T08:44:36Z</time>
      </trkpt>
      <trkpt lat="58.6623573303" lon="16.018311074">
        <ele>110.69</ele>
        <time>2012-07-07T08:44:38Z</time>
      </trkpt>
      <trkpt lat="58.6624041852" lon="16.0182015225">
        <ele>110.21</ele>
        <time>2012-07-07T08:44:40Z</time>
      </trkpt>
      <trkpt lat="58.6625767685" lon="16.0179408453">
        <ele>110.21</ele>
        <time>2012-07-07T08:44:46Z</time>
      </trkpt>
      <trkpt lat="58.6626885831" lon="16.0178285278">
        <ele>110.21</ele>
        <time>2012-07-07T08:44:52Z</time>
      </trkpt>
      <trkpt lat="58.6626919359" lon="16.0177786555">
        <ele>110.21</ele>
        <time>2012-07-07T08:44:54Z</time>
      </trkpt>
      <trkpt lat="58.6628207657" lon="16.017547315">
        <ele>110.69</ele>
        <time>2012-07-07T08:45:04Z</time>
      </trkpt>
      <trkpt lat="58.6629411299" lon="16.0172780883">
        <ele>111.17</ele>
        <time>2012-07-07T08:45:16Z</time>
      </trkpt>
      <trkpt lat="58.6629506014" lon="16.0172552895">
        <ele>111.17</ele>
        <time>2012-07-07T08:45:19Z</time>
      </trkpt>
      <trkpt lat="58.6631595623" lon="16.0167105496">
        <ele>111.65</ele>
        <time>2012-07-07T08:45:30Z</time>
      </trkpt>
      <trkpt lat="58.663357459" lon="16.0163857508">
        <ele>109.73</ele>
        <time>2012-07-07T08:45:41Z</time>
      </trkpt>
      <trkpt lat="58.6635517515" lon="16.0161213856">
        <ele>107.32</ele>
        <time>2012-07-07T08:45:49Z</time>
      </trkpt>
      <trkpt lat="58.6638684198" lon="16.0155535955">
        <ele>104.92</ele>
        <time>2012-07-07T08:46:02Z</time>
      </trkpt>
      <trkpt lat="58.6640603654" lon="16.0151451454">
        <ele>103.48</ele>
        <time>2012-07-07T08:46:13Z</time>
      </trkpt>
      <trkpt lat="58.6641290132" lon="16.0149970371">
        <ele>102.52</ele>
        <time>2012-07-07T08:46:16Z</time>
      </trkpt>
      <trkpt lat="58.664206462" lon="16.0144069511">
        <ele>99.15</ele>
        <time>2012-07-07T08:46:28Z</time>
      </trkpt>
      <trkpt lat="58.6642459407" lon="16.0142376367">
        <ele>99.15</ele>
        <time>2012-07-07T08:46:32Z</time>
      </trkpt>
      <trkpt lat="58.6642785463" lon="16.014202768">
        <ele>98.67</ele>
        <time>2012-07-07T08:46:34Z</time>
      </trkpt>
      <trkpt lat="58.6643969826" lon="16.0140996706">
        <ele>97.23</ele>
        <time>2012-07-07T08:46:42Z</time>
      </trkpt>
      <trkpt lat="58.6644319352" lon="16.0140412487">
        <ele>96.27</ele>
        <time>2012-07-07T08:46:45Z</time>
      </trkpt>
      <trkpt lat="58.6646206956" lon="16.0138585232">
        <ele>95.31</ele>
        <time>2012-07-07T08:46:53Z</time>
      </trkpt>
      <trkpt lat="58.6649524514" lon="16.0138220619">
        <ele>93.87</ele>
        <time>2012-07-07T08:47:04Z</time>
      </trkpt>
      <trkpt lat="58.6650477536" lon="16.0137665737">
        <ele>92.9</ele>
        <time>2012-07-07T08:47:08Z</time>
      </trkpt>
      <trkpt lat="58.665109193" lon="16.0137666576">
        <ele>92.9</ele>
        <time>2012-07-07T08:47:10Z</time>
      </trkpt>
      <trkpt lat="58.6654022243" lon="16.0134697706">
        <ele>93.87</ele>
        <time>2012-07-07T08:47:23Z</time>
      </trkpt>
      <trkpt lat="58.6655999534" lon="16.0131220892">
        <ele>92.9</ele>
        <time>2012-07-07T08:47:33Z</time>
      </trkpt>
      <trkpt lat="58.665707577" lon="16.0130350012">
        <ele>91.94</ele>
        <time>2012-07-07T08:47:37Z</time>
      </trkpt>
      <trkpt lat="58.6658509076" lon="16.0128823668">
        <ele>91.94</ele>
        <time>2012-07-07T08:47:44Z</time>
      </trkpt>
      <trkpt lat="58.6660277657" lon="16.0126845539">
        <ele>92.42</ele>
        <time>2012-07-07T08:47:55Z</time>
      </trkpt>
      <trkpt lat="58.6660824995" lon="16.0126069374">
        <ele>92.42</ele>
        <time>2012-07-07T08:47:58Z</time>
      </trkpt>
      <trkpt lat="58.6663012672" lon="16.0120621137">
        <ele>91.46</ele>
        <time>2012-07-07T08:48:09Z</time>
      </trkpt>
      <trkpt lat="58.6663874332" lon="16.01144135">
        <ele>90.02</ele>
        <time>2012-07-07T08:48:20Z</time>
      </trkpt>
      <trkpt lat="58.6663830746" lon="16.0112186428">
        <ele>89.54</ele>
        <time>2012-07-07T08:48:24Z</time>
      </trkpt>
      <trkpt lat="58.6662598606" lon="16.0108140483">
        <ele>89.06</ele>
        <time>2012-07-07T08:48:34Z</time>
      </trkpt>
      <trkpt lat="58.6660424341" lon="16.0104804486">
        <ele>88.1</ele>
        <time>2012-07-07T08:48:45Z</time>
      </trkpt>
      <trkpt lat="58.6658105906" lon="16.0101211164">
        <ele>88.1</ele>
        <time>2012-07-07T08:48:56Z</time>
      </trkpt>
      <trkpt lat="58.6657090019" lon="16.0099672247">
        <ele>87.62</ele>
        <time>2012-07-07T08:49:01Z</time>
      </trkpt>
      <trkpt lat="58.6656805035" lon="16.0099361278">
        <ele>87.62</ele>
        <time>2012-07-07T08:49:02Z</time>
      </trkpt>
      <trkpt lat="58.6655023042" lon="16.0097945575">
        <ele>87.14</ele>
        <time>2012-07-07T08:49:09Z</time>
      </trkpt>
      <trkpt lat="58.6654456425" lon="16.0097597726">
        <ele>86.66</ele>
        <time>2012-07-07T08:49:11Z</time>
      </trkpt>
      <trkpt lat="58.6653210036" lon="16.0097626224">
        <ele>87.14</ele>
        <time>2012-07-07T08:49:15Z</time>
      </trkpt>
      <trkpt lat="58.6651856359" lon="16.0097985808">
        <ele>86.18</ele>
        <time>2012-07-07T08:49:20Z</time>
      </trkpt>
      <trkpt lat="58.6651564669" lon="16.0097973235">
        <ele>86.18</ele>
        <time>2012-07-07T08:49:21Z</time>
      </trkpt>
      <trkpt lat="58.6651298963" lon="16.0098193679">
        <ele>86.18</ele>
        <time>2012-07-07T08:49:22Z</time>
      </trkpt>
      <trkpt lat="58.6650574766" lon="16.0098852497">
        <ele>86.18</ele>
        <time>2012-07-07T08:49:26Z</time>
      </trkpt>
      <trkpt lat="58.6648084503" lon="16.0102279019">
        <ele>86.18</ele>
        <time>2012-07-07T08:49:38Z</time>
      </trkpt>
      <trkpt lat="58.664746508" lon="16.0102998186">
        <ele>85.69</ele>
        <time>2012-07-07T08:49:41Z</time>
      </trkpt>
      <trkpt lat="58.6647105496" lon="16.0103224497">
        <ele>86.18</ele>
        <time>2012-07-07T08:49:43Z</time>
      </trkpt>
      <trkpt lat="58.6645670515" lon="16.0103973001">
        <ele>86.18</ele>
        <time>2012-07-07T08:49:49Z</time>
      </trkpt>
      <trkpt lat="58.6643595155" lon="16.0104268044">
        <ele>86.18</ele>
        <time>2012-07-07T08:49:57Z</time>
      </trkpt>
      <trkpt lat="58.6641984154" lon="16.0103878286">
        <ele>85.21</ele>
        <time>2012-07-07T08:50:04Z</time>
      </trkpt>
      <trkpt lat="58.6641275045" lon="16.0103705619">
        <ele>85.21</ele>
        <time>2012-07-07T08:50:07Z</time>
      </trkpt>
      <trkpt lat="58.6639187951" lon="16.0103641078">
        <ele>85.21</ele>
        <time>2012-07-07T08:50:16Z</time>
      </trkpt>
      <trkpt lat="58.6638485547" lon="16.010353798">
        <ele>85.21</ele>
        <time>2012-07-07T08:50:19Z</time>
      </trkpt>
      <trkpt lat="58.6637402605" lon="16.0104004014">
        <ele>84.73</ele>
        <time>2012-07-07T08:50:24Z</time>
      </trkpt>
      <trkpt lat="58.6635405198" lon="16.0105440672">
        <ele>85.21</ele>
        <time>2012-07-07T08:50:32Z</time>
      </trkpt>
      <trkpt lat="58.6634131987" lon="16.0106630065">
        <ele>85.69</ele>
        <time>2012-07-07T08:50:38Z</time>
      </trkpt>
      <trkpt lat="58.6631779186" lon="16.0108255316">
        <ele>85.69</ele>
        <time>2012-07-07T08:50:49Z</time>
      </trkpt>
      <trkpt lat="58.6631495878" lon="16.0108513478">
        <ele>85.69</ele>
        <time>2012-07-07T08:50:50Z</time>
      </trkpt>
      <trkpt lat="58.6631308123" lon="16.0108598974">
        <ele>85.69</ele>
        <time>2012-07-07T08:50:51Z</time>
      </trkpt>
      <trkpt lat="58.6629999708" lon="16.0109722149">
        <ele>86.18</ele>
        <time>2012-07-07T08:50:57Z</time>
      </trkpt>
      <trkpt lat="58.662926713" lon="16.0110440478">
        <ele>86.18</ele>
        <time>2012-07-07T08:51:00Z</time>
      </trkpt>
      <trkpt lat="58.6628256273" lon="16.0112441238">
        <ele>86.66</ele>
        <time>2012-07-07T08:51:06Z</time>
      </trkpt>
      <trkpt lat="58.6626350228" lon="16.0114328004">
        <ele>87.14</ele>
        <time>2012-07-07T08:51:15Z</time>
      </trkpt>
      <trkpt lat="58.6624814663" lon="16.0115041304">
        <ele>87.62</ele>
        <time>2012-07-07T08:51:21Z</time>
      </trkpt>
      <trkpt lat="58.6623359565" lon="16.0115188826">
        <ele>87.62</ele>
        <time>2012-07-07T08:51:27Z</time>
      </trkpt>
      <trkpt lat="58.6621646304" lon="16.0115415137">
        <ele>88.1</ele>
        <time>2012-07-07T08:51:34Z</time>
      </trkpt>
      <trkpt lat="58.6619175319" lon="16.0115135182">
        <ele>88.58</ele>
        <time>2012-07-07T08:51:44Z</time>
      </trkpt>
      <trkpt lat="58.6617205571" lon="16.0111085046">
        <ele>87.14</ele>
        <time>2012-07-07T08:51:55Z</time>
      </trkpt>
      <trkpt lat="58.6615494825" lon="16.0106624197">
        <ele>86.18</ele>
        <time>2012-07-07T08:52:05Z</time>
      </trkpt>
      <trkpt lat="58.6613767315" lon="16.0102257226">
        <ele>85.69</ele>
        <time>2012-07-07T08:52:15Z</time>
      </trkpt>
      <trkpt lat="58.661325518" lon="16.0100963898">
        <ele>85.69</ele>
        <time>2012-07-07T08:52:18Z</time>
      </trkpt>
      <trkpt lat="58.6612693593" lon="16.0099487845">
        <ele>86.18</ele>
        <time>2012-07-07T08:52:22Z</time>
      </trkpt>
      <trkpt lat="58.6611052416" lon="16.0095118359">
        <ele>85.21</ele>
        <time>2012-07-07T08:52:33Z</time>
      </trkpt>
      <trkpt lat="58.6610862147" lon="16.0094252508">
        <ele>86.66</ele>
        <time>2012-07-07T08:52:35Z</time>
      </trkpt>
      <trkpt lat="58.6611188203" lon="16.0090219975">
        <ele>86.18</ele>
        <time>2012-07-07T08:52:43Z</time>
      </trkpt>
      <trkpt lat="58.6611412838" lon="16.0088983644">
        <ele>86.18</ele>
        <time>2012-07-07T08:52:46Z</time>
      </trkpt>
      <trkpt lat="58.66121253" lon="16.0086060036">
        <ele>85.21</ele>
        <time>2012-07-07T08:52:53Z</time>
      </trkpt>
      <trkpt lat="58.6613183096" lon="16.0082555562">
        <ele>84.73</ele>
        <time>2012-07-07T08:53:00Z</time>
      </trkpt>
      <trkpt lat="58.6613844428" lon="16.0080909356">
        <ele>84.73</ele>
        <time>2012-07-07T08:53:04Z</time>
      </trkpt>
      <trkpt lat="58.6614290345" lon="16.0078869201">
        <ele>84.73</ele>
        <time>2012-07-07T08:53:08Z</time>
      </trkpt>
      <trkpt lat="58.6615540087" lon="16.0074407514">
        <ele>85.21</ele>
        <time>2012-07-07T08:53:18Z</time>
      </trkpt>
      <trkpt lat="58.6615970917" lon="16.0072805732">
        <ele>84.73</ele>
        <time>2012-07-07T08:53:22Z</time>
      </trkpt>
      <trkpt lat="58.6617178749" lon="16.0068507493">
        <ele>84.73</ele>
        <time>2012-07-07T08:53:33Z</time>
      </trkpt>
      <trkpt lat="58.6618274264" lon="16.0063563846">
        <ele>84.25</ele>
        <time>2012-07-07T08:53:43Z</time>
      </trkpt>
      <trkpt lat="58.6618672404" lon="16.0062360205">
        <ele>84.25</ele>
        <time>2012-07-07T08:53:46Z</time>
      </trkpt>
      <trkpt lat="58.6617739499" lon="16.0059317574">
        <ele>84.25</ele>
        <time>2012-07-07T08:54:00Z</time>
      </trkpt>
      <trkpt lat="58.6617830023" lon="16.0059702303">
        <ele>84.25</ele>
        <time>2012-07-07T08:54:02Z</time>
      </trkpt>
      <trkpt lat="58.6617531627" lon="16.0060921032">
        <ele>84.73</ele>
        <time>2012-07-07T08:54:12Z</time>
      </trkpt>
      <trkpt lat="58.6617380753" lon="16.0062403791">
        <ele>84.25</ele>
        <time>2012-07-07T08:54:24Z</time>
      </trkpt>
      <trkpt lat="58.6617714353" lon="16.0063065123">
        <ele>84.25</ele>
        <time>2012-07-07T08:54:56Z</time>
      </trkpt>
      <trkpt lat="58.6617626343" lon="16.0063790996">
        <ele>84.25</ele>
        <time>2012-07-07T08:55:29Z</time>
      </trkpt>
      <trkpt lat="58.6617793143" lon="16.0062194243">
        <ele>84.25</ele>
        <time>2012-07-07T08:55:55Z</time>
      </trkpt>
    </trkseg>
  </trk>
</gpx>